<?xml version="1.0" encoding="UTF-8"?>
<gpx creator="Patrick Hooper" version="1.1" xmlns="http://www.topografix.com/GPX/1/1" xmlns:xsi="http://www.w3.org/2001/XMLSchema-instance" xsi:schemaLocation="http://www.topografix.com/GPX/1/1 http://www.topografix.com/GPX/1/1/gpx.xsd http://www.garmin.com/xmlschemas/GpxExtensions/v3 http://www.garmin.com/xmlschemas/GpxExtensionsv3.xsd http://www.garmin.com/xmlschemas/TrackPointExtension/v1 http://www.garmin.com/xmlschemas/TrackPointExtensionv1.xsd">
  <metadata>
    <name>Activity</name>
  </metadata>
  <trk>
    <name>a</name>
    <trkseg>
      <trkpt lat="32.55509813002951" lon="35.34351143985987">
        <ele>-5</ele>
        <time>2026-06-10T15:10:57.000Z</time>
      </trkpt>
      <trkpt lat="32.55520041434769" lon="35.34340838610231">
        <ele>-5</ele>
        <time>2026-06-10T15:10:58.000Z</time>
      </trkpt>
      <trkpt lat="32.55517779041479" lon="35.34337677829065">
        <ele>-2</ele>
        <time>2026-06-10T15:10:59.000Z</time>
      </trkpt>
      <trkpt lat="32.55525937427415" lon="35.343248442036995">
        <ele>-2</ele>
        <time>2026-06-10T15:11:00.000Z</time>
      </trkpt>
      <trkpt lat="32.55526160944838" lon="35.34316443673889">
        <ele>-2</ele>
        <time>2026-06-10T15:11:01.000Z</time>
      </trkpt>
      <trkpt lat="32.55520498503458" lon="35.34305882475657">
        <ele>-2</ele>
        <time>2026-06-10T15:11:02.000Z</time>
      </trkpt>
      <trkpt lat="32.55489895242972" lon="35.34269393256368">
        <ele>-2</ele>
        <time>2026-06-10T15:11:03.000Z</time>
      </trkpt>
      <trkpt lat="32.55418984340556" lon="35.341672830470046">
        <ele>3</ele>
        <time>2026-06-10T15:11:04.000Z</time>
      </trkpt>
      <trkpt lat="32.55403394000308" lon="35.341393992484974">
        <ele>3</ele>
        <time>2026-06-10T15:11:05.000Z</time>
      </trkpt>
      <trkpt lat="32.55399184422177" lon="35.3412898706188">
        <ele>6</ele>
        <time>2026-06-10T15:11:06.000Z</time>
      </trkpt>
      <trkpt lat="32.55396595345361" lon="35.34117084759111">
        <ele>6</ele>
        <time>2026-06-10T15:11:07.000Z</time>
      </trkpt>
      <trkpt lat="32.553975825473124" lon="35.34106989222176">
        <ele>6</ele>
        <time>2026-06-10T15:11:08.000Z</time>
      </trkpt>
      <trkpt lat="32.554001902505796" lon="35.34100693481431">
        <ele>6</ele>
        <time>2026-06-10T15:11:09.000Z</time>
      </trkpt>
      <trkpt lat="32.554678974032676" lon="35.340289816415826">
        <ele>8</ele>
        <time>2026-06-10T15:11:10.000Z</time>
      </trkpt>
      <trkpt lat="32.5554648240387" lon="35.339313790335815">
        <ele>11</ele>
        <time>2026-06-10T15:11:11.000Z</time>
      </trkpt>
      <trkpt lat="32.555557956298244" lon="35.33923891199914">
        <ele>11</ele>
        <time>2026-06-10T15:11:12.000Z</time>
      </trkpt>
      <trkpt lat="32.55565183361587" lon="35.33918992443062">
        <ele>11</ele>
        <time>2026-06-10T15:11:13.000Z</time>
      </trkpt>
      <trkpt lat="32.55729096138383" lon="35.33863299351855">
        <ele>6</ele>
        <time>2026-06-10T15:11:14.000Z</time>
      </trkpt>
      <trkpt lat="32.5582386982051" lon="35.33834278819855">
        <ele>2.5</ele>
        <time>2026-06-10T15:11:15.000Z</time>
      </trkpt>
      <trkpt lat="32.5582386982051" lon="35.33834278819855">
        <ele>2.5</ele>
        <time>2026-06-10T15:11:16.000Z</time>
      </trkpt>
      <trkpt lat="32.558391970956144" lon="35.33829585473901">
        <ele>-1</ele>
        <time>2026-06-10T15:11:17.000Z</time>
      </trkpt>
      <trkpt lat="32.55852291491306" lon="35.338233828654154">
        <ele>-1</ele>
        <time>2026-06-10T15:11:18.000Z</time>
      </trkpt>
      <trkpt lat="32.55863187965673" lon="35.338159881640074">
        <ele>-1</ele>
        <time>2026-06-10T15:11:19.000Z</time>
      </trkpt>
      <trkpt lat="32.559025829114596" lon="35.33783987919628">
        <ele>-4</ele>
        <time>2026-06-10T15:11:20.000Z</time>
      </trkpt>
      <trkpt lat="32.55912119654837" lon="35.337713778116864">
        <ele>-4</ele>
        <time>2026-06-10T15:11:21.000Z</time>
      </trkpt>
      <trkpt lat="32.55914596972941" lon="35.33762884149616">
        <ele>-4</ele>
        <time>2026-06-10T15:11:22.000Z</time>
      </trkpt>
      <trkpt lat="32.55917167423304" lon="35.3374818787906">
        <ele>-4</ele>
        <time>2026-06-10T15:11:23.000Z</time>
      </trkpt>
      <trkpt lat="32.55926294384739" lon="35.33732038745255">
        <ele>-4</ele>
        <time>2026-06-10T15:11:24.000Z</time>
      </trkpt>
      <trkpt lat="32.55939854441729" lon="35.33715014168211">
        <ele>3</ele>
        <time>2026-06-10T15:11:25.000Z</time>
      </trkpt>
      <trkpt lat="32.559594867220405" lon="35.336981944821375">
        <ele>-1</ele>
        <time>2026-06-10T15:11:26.000Z</time>
      </trkpt>
      <trkpt lat="32.55989009648316" lon="35.33721701064446">
        <ele>-1</ele>
        <time>2026-06-10T15:11:27.000Z</time>
      </trkpt>
      <trkpt lat="32.56001992285296" lon="35.33742264667353">
        <ele>-6</ele>
        <time>2026-06-10T15:11:28.000Z</time>
      </trkpt>
      <trkpt lat="32.56001992285296" lon="35.33742264667353">
        <ele>-6</ele>
        <time>2026-06-10T15:11:29.000Z</time>
      </trkpt>
      <trkpt lat="32.55989009648316" lon="35.33721701064446">
        <ele>-1</ele>
        <time>2026-06-10T15:11:30.000Z</time>
      </trkpt>
      <trkpt lat="32.559594867220405" lon="35.336981944821375">
        <ele>-1</ele>
        <time>2026-06-10T15:11:31.000Z</time>
      </trkpt>
      <trkpt lat="32.55939854441729" lon="35.33715014168211">
        <ele>3</ele>
        <time>2026-06-10T15:11:32.000Z</time>
      </trkpt>
      <trkpt lat="32.55926294384739" lon="35.33732038745255">
        <ele>-4</ele>
        <time>2026-06-10T15:11:33.000Z</time>
      </trkpt>
      <trkpt lat="32.55917167423304" lon="35.3374818787906">
        <ele>-4</ele>
        <time>2026-06-10T15:11:34.000Z</time>
      </trkpt>
      <trkpt lat="32.55914596972941" lon="35.33762884149616">
        <ele>-4</ele>
        <time>2026-06-10T15:11:35.000Z</time>
      </trkpt>
      <trkpt lat="32.55912119654837" lon="35.337713778116864">
        <ele>-4</ele>
        <time>2026-06-10T15:11:36.000Z</time>
      </trkpt>
      <trkpt lat="32.55927095322171" lon="35.33782088021534">
        <ele>-4</ele>
        <time>2026-06-10T15:11:37.000Z</time>
      </trkpt>
      <trkpt lat="32.559350860700405" lon="35.33790693442315">
        <ele>-4</ele>
        <time>2026-06-10T15:11:38.000Z</time>
      </trkpt>
      <trkpt lat="32.55965987353757" lon="35.338126912820194">
        <ele>-7</ele>
        <time>2026-06-10T15:11:39.000Z</time>
      </trkpt>
      <trkpt lat="32.55983887374041" lon="35.33849869680029">
        <ele>-7</ele>
        <time>2026-06-10T15:11:40.000Z</time>
      </trkpt>
      <trkpt lat="32.559982856213665" lon="35.338744752230006">
        <ele>-7</ele>
        <time>2026-06-10T15:11:41.000Z</time>
      </trkpt>
      <trkpt lat="32.56025890023095" lon="35.33894796682033">
        <ele>-7</ele>
        <time>2026-06-10T15:11:42.000Z</time>
      </trkpt>
      <trkpt lat="32.56051482768017" lon="35.33918787552091">
        <ele>-8</ele>
        <time>2026-06-10T15:11:43.000Z</time>
      </trkpt>
      <trkpt lat="32.560589892281364" lon="35.33927895887074">
        <ele>-8</ele>
        <time>2026-06-10T15:11:44.000Z</time>
      </trkpt>
      <trkpt lat="32.56071897359309" lon="35.33948589875145">
        <ele>-8</ele>
        <time>2026-06-10T15:11:45.000Z</time>
      </trkpt>
      <trkpt lat="32.56076870621969" lon="35.33964589997335">
        <ele>-8</ele>
        <time>2026-06-10T15:11:46.000Z</time>
      </trkpt>
      <trkpt lat="32.56083091856907" lon="35.33975095316211">
        <ele>-9</ele>
        <time>2026-06-10T15:11:47.000Z</time>
      </trkpt>
      <trkpt lat="32.56094193222244" lon="35.33985898658318">
        <ele>-9</ele>
        <time>2026-06-10T15:11:48.000Z</time>
      </trkpt>
      <trkpt lat="32.56107399376647" lon="35.33992883577784">
        <ele>-9</ele>
        <time>2026-06-10T15:11:49.000Z</time>
      </trkpt>
      <trkpt lat="32.56122691693664" lon="35.34004078075381">
        <ele>-11</ele>
        <time>2026-06-10T15:11:50.000Z</time>
      </trkpt>
      <trkpt lat="32.5613533905451" lon="35.34020003691763">
        <ele>-11</ele>
        <time>2026-06-10T15:11:51.000Z</time>
      </trkpt>
      <trkpt lat="32.56141299519121" lon="35.34030099228697">
        <ele>-11</ele>
        <time>2026-06-10T15:11:52.000Z</time>
      </trkpt>
      <trkpt lat="32.56147390368895" lon="35.34034383312636">
        <ele>-11</ele>
        <time>2026-06-10T15:11:53.000Z</time>
      </trkpt>
      <trkpt lat="32.56151488188315" lon="35.34041368232102">
        <ele>-11</ele>
        <time>2026-06-10T15:11:54.000Z</time>
      </trkpt>
      <trkpt lat="32.56155884030965" lon="35.34057591871714">
        <ele>-11</ele>
        <time>2026-06-10T15:11:55.000Z</time>
      </trkpt>
      <trkpt lat="32.56155884030965" lon="35.34057591871714">
        <ele>-11</ele>
        <time>2026-06-10T15:11:56.000Z</time>
      </trkpt>
      <trkpt lat="32.56155884030965" lon="35.34057591871714">
        <ele>-11</ele>
        <time>2026-06-10T15:11:57.000Z</time>
      </trkpt>
      <trkpt lat="32.56163893405286" lon="35.3407189698678">
        <ele>-11</ele>
        <time>2026-06-10T15:11:58.000Z</time>
      </trkpt>
      <trkpt lat="32.56169891122801" lon="35.341007866136906">
        <ele>-11</ele>
        <time>2026-06-10T15:11:59.000Z</time>
      </trkpt>
      <trkpt lat="32.561683823801964" lon="35.34139082598815">
        <ele>-12</ele>
        <time>2026-06-10T15:12:00.000Z</time>
      </trkpt>
      <trkpt lat="32.5616558841241" lon="35.34155883658436">
        <ele>-12</ele>
        <time>2026-06-10T15:12:01.000Z</time>
      </trkpt>
      <trkpt lat="32.561456953617714" lon="35.3423828708168">
        <ele>-13</ele>
        <time>2026-06-10T15:12:02.000Z</time>
      </trkpt>
      <trkpt lat="32.561404985816885" lon="35.342675864905324">
        <ele>-13</ele>
        <time>2026-06-10T15:12:03.000Z</time>
      </trkpt>
      <trkpt lat="32.5613699680873" lon="35.342746831687094">
        <ele>-13</ele>
        <time>2026-06-10T15:12:04.000Z</time>
      </trkpt>
      <trkpt lat="32.561337930590014" lon="35.34276899716487">
        <ele>-13</ele>
        <time>2026-06-10T15:12:05.000Z</time>
      </trkpt>
      <trkpt lat="32.56148712846981" lon="35.34316816202927">
        <ele>-12</ele>
        <time>2026-06-10T15:12:06.000Z</time>
      </trkpt>
      <trkpt lat="32.56287126011114" lon="35.34501907255543">
        <ele>-13</ele>
        <time>2026-06-10T15:12:07.000Z</time>
      </trkpt>
      <trkpt lat="32.56247488921452" lon="35.345898986143595">
        <ele>-15</ele>
        <time>2026-06-10T15:12:08.000Z</time>
      </trkpt>
      <trkpt lat="32.561880705398636" lon="35.34712386162111">
        <ele>-15</ele>
        <time>2026-06-10T15:12:09.000Z</time>
      </trkpt>
      <trkpt lat="32.561725919583274" lon="35.347359858766794">
        <ele>-15</ele>
        <time>2026-06-10T15:12:10.000Z</time>
      </trkpt>
      <trkpt lat="32.561482844385864" lon="35.34767594965568">
        <ele>-15</ele>
        <time>2026-06-10T15:12:11.000Z</time>
      </trkpt>
      <trkpt lat="32.560991930528495" lon="35.348162041768596">
        <ele>-15</ele>
        <time>2026-06-10T15:12:12.000Z</time>
      </trkpt>
      <trkpt lat="32.560991930528495" lon="35.348162041768596">
        <ele>-15</ele>
        <time>2026-06-10T15:12:13.000Z</time>
      </trkpt>
      <trkpt lat="32.56087599458268" lon="35.34827683899425">
        <ele>-15</ele>
        <time>2026-06-10T15:12:14.000Z</time>
      </trkpt>
      <trkpt lat="32.56057983399734" lon="35.34851581637224">
        <ele>-15</ele>
        <time>2026-06-10T15:12:15.000Z</time>
      </trkpt>
      <trkpt lat="32.5602486556824" lon="35.348907903184916">
        <ele>-16</ele>
        <time>2026-06-10T15:12:16.000Z</time>
      </trkpt>
      <trkpt lat="32.55985563754713" lon="35.349602297312074">
        <ele>-16</ele>
        <time>2026-06-10T15:12:17.000Z</time>
      </trkpt>
      <trkpt lat="32.55987109750221" lon="35.34993384815605">
        <ele>-16</ele>
        <time>2026-06-10T15:12:18.000Z</time>
      </trkpt>
      <trkpt lat="32.5598193159659" lon="35.35017357059211">
        <ele>-16</ele>
        <time>2026-06-10T15:12:19.000Z</time>
      </trkpt>
      <trkpt lat="32.559577172091096" lon="35.35043080189297">
        <ele>-16</ele>
        <time>2026-06-10T15:12:20.000Z</time>
      </trkpt>
      <trkpt lat="32.559503783870575" lon="35.35130829404238">
        <ele>-17</ele>
        <time>2026-06-10T15:12:21.000Z</time>
      </trkpt>
      <trkpt lat="32.55949204920587" lon="35.35142713080556">
        <ele>-18</ele>
        <time>2026-06-10T15:12:22.000Z</time>
      </trkpt>
      <trkpt lat="32.55948776512193" lon="35.35235528690417">
        <ele>-17</ele>
        <time>2026-06-10T15:12:23.000Z</time>
      </trkpt>
      <trkpt lat="32.55947709324833" lon="35.352599377630035">
        <ele>-17</ele>
        <time>2026-06-10T15:12:24.000Z</time>
      </trkpt>
      <trkpt lat="32.55947709324833" lon="35.352599377630035">
        <ele>-17</ele>
        <time>2026-06-10T15:12:25.000Z</time>
      </trkpt>
      <trkpt lat="32.55946150182474" lon="35.35295598997823">
        <ele>-17</ele>
        <time>2026-06-10T15:12:26.000Z</time>
      </trkpt>
      <trkpt lat="32.55878834185276" lon="35.3551945169686">
        <ele>-18</ele>
        <time>2026-06-10T15:12:27.000Z</time>
      </trkpt>
      <trkpt lat="32.55790251315858" lon="35.35851878582005">
        <ele>-20</ele>
        <time>2026-06-10T15:12:28.000Z</time>
      </trkpt>
      <trkpt lat="32.55790251315858" lon="35.35851878582005">
        <ele>-20</ele>
        <time>2026-06-10T15:12:29.000Z</time>
      </trkpt>
      <trkpt lat="32.55736844742377" lon="35.36052298606611">
        <ele>-22</ele>
        <time>2026-06-10T15:12:30.000Z</time>
      </trkpt>
      <trkpt lat="32.55651833615865" lon="35.362201974441156">
        <ele>-23</ele>
        <time>2026-06-10T15:12:31.000Z</time>
      </trkpt>
      <trkpt lat="32.55650362126165" lon="35.363356255665934">
        <ele>-26</ele>
        <time>2026-06-10T15:12:32.000Z</time>
      </trkpt>
      <trkpt lat="32.55647761102256" lon="35.36345092504437">
        <ele>-26</ele>
        <time>2026-06-10T15:12:33.000Z</time>
      </trkpt>
      <trkpt lat="32.55619600742434" lon="35.36334201693535">
        <ele>-26</ele>
        <time>2026-06-10T15:12:34.000Z</time>
      </trkpt>
      <trkpt lat="32.55611405565023" lon="35.36465059965849">
        <ele>-26.5</ele>
        <time>2026-06-10T15:12:35.000Z</time>
      </trkpt>
      <trkpt lat="32.55611405565023" lon="35.36465059965849">
        <ele>-26.5</ele>
        <time>2026-06-10T15:12:36.000Z</time>
      </trkpt>
      <trkpt lat="32.555921044796904" lon="35.365155190229416">
        <ele>-27</ele>
        <time>2026-06-10T15:12:37.000Z</time>
      </trkpt>
      <trkpt lat="32.555921044796904" lon="35.365155190229416">
        <ele>-27</ele>
        <time>2026-06-10T15:12:38.000Z</time>
      </trkpt>
      <trkpt lat="32.553833788174096" lon="35.3648279607296">
        <ele>-26.5</ele>
        <time>2026-06-10T15:12:39.000Z</time>
      </trkpt>
      <trkpt lat="32.553833788174096" lon="35.3648279607296">
        <ele>-26.5</ele>
        <time>2026-06-10T15:12:40.000Z</time>
      </trkpt>
      <trkpt lat="32.55075848627494" lon="35.36376379430294">
        <ele>-30</ele>
        <time>2026-06-10T15:12:41.000Z</time>
      </trkpt>
      <trkpt lat="32.55075848627494" lon="35.36376379430294">
        <ele>-30</ele>
        <time>2026-06-10T15:12:42.000Z</time>
      </trkpt>
      <trkpt lat="32.550429528427586" lon="35.364189594984055">
        <ele>-28</ele>
        <time>2026-06-10T15:12:43.000Z</time>
      </trkpt>
      <trkpt lat="32.550429528427586" lon="35.364189594984055">
        <ele>-28</ele>
        <time>2026-06-10T15:12:44.000Z</time>
      </trkpt>
      <trkpt lat="32.55027211432333" lon="35.36501672118902">
        <ele>-29</ele>
        <time>2026-06-10T15:12:45.000Z</time>
      </trkpt>
      <trkpt lat="32.55018784107086" lon="35.364965009295865">
        <ele>-29</ele>
        <time>2026-06-10T15:12:46.000Z</time>
      </trkpt>
      <trkpt lat="32.55005067326242" lon="35.36527962309002">
        <ele>-29</ele>
        <time>2026-06-10T15:12:47.000Z</time>
      </trkpt>
      <trkpt lat="32.54968000686944" lon="35.3657732240656">
        <ele>-30</ele>
        <time>2026-06-10T15:12:48.000Z</time>
      </trkpt>
      <trkpt lat="32.54935385769652" lon="35.36646985336698">
        <ele>-28</ele>
        <time>2026-06-10T15:12:49.000Z</time>
      </trkpt>
      <trkpt lat="32.549233717081705" lon="35.36637690737196">
        <ele>-28</ele>
        <time>2026-06-10T15:12:50.000Z</time>
      </trkpt>
      <trkpt lat="32.5485339212835" lon="35.36602095587598">
        <ele>-21</ele>
        <time>2026-06-10T15:12:51.000Z</time>
      </trkpt>
      <trkpt lat="32.547844928827395" lon="35.3657888702852">
        <ele>-19</ele>
        <time>2026-06-10T15:12:52.000Z</time>
      </trkpt>
      <trkpt lat="32.545640872419064" lon="35.37221372593442">
        <ele>-27</ele>
        <time>2026-06-10T15:12:53.000Z</time>
      </trkpt>
      <trkpt lat="32.54562982850071" lon="35.3722083941102">
        <ele>-27</ele>
        <time>2026-06-10T15:12:54.000Z</time>
      </trkpt>
      <trkpt lat="32.55063696418651" lon="35.37439372390509">
        <ele>-40</ele>
        <time>2026-06-10T15:12:55.000Z</time>
      </trkpt>
      <trkpt lat="32.55060529635091" lon="35.3743634321559">
        <ele>-40</ele>
        <time>2026-06-10T15:12:56.000Z</time>
      </trkpt>
      <trkpt lat="32.550199871142205" lon="35.37495997641146">
        <ele>-43</ele>
        <time>2026-06-10T15:12:57.000Z</time>
      </trkpt>
      <trkpt lat="32.54978971667118" lon="35.3757098773653">
        <ele>-43</ele>
        <time>2026-06-10T15:12:58.000Z</time>
      </trkpt>
      <trkpt lat="32.54920987522326" lon="35.37702993401207">
        <ele>-45</ele>
        <time>2026-06-10T15:12:59.000Z</time>
      </trkpt>
      <trkpt lat="32.548909989347536" lon="35.37839990954995">
        <ele>-46</ele>
        <time>2026-06-10T15:13:00.000Z</time>
      </trkpt>
      <trkpt lat="32.54833983365461" lon="35.37985985085055">
        <ele>-49</ele>
        <time>2026-06-10T15:13:01.000Z</time>
      </trkpt>
      <trkpt lat="32.54799084129637" lon="35.38089698407482">
        <ele>-48.5</ele>
        <time>2026-06-10T15:13:02.000Z</time>
      </trkpt>
      <trkpt lat="32.54799084129637" lon="35.38089698407482">
        <ele>-48.5</ele>
        <time>2026-06-10T15:13:03.000Z</time>
      </trkpt>
      <trkpt lat="32.547989842623245" lon="35.38089995192513">
        <ele>-48</ele>
        <time>2026-06-10T15:13:04.000Z</time>
      </trkpt>
      <trkpt lat="32.547219825101344" lon="35.38246997555651">
        <ele>-54</ele>
        <time>2026-06-10T15:13:05.000Z</time>
      </trkpt>
      <trkpt lat="32.5469998467043" lon="35.383099922160056">
        <ele>-55</ele>
        <time>2026-06-10T15:13:06.000Z</time>
      </trkpt>
      <trkpt lat="32.546629925369395" lon="35.38550999877252">
        <ele>-55</ele>
        <time>2026-06-10T15:13:07.000Z</time>
      </trkpt>
      <trkpt lat="32.546165381658795" lon="35.386679181158826">
        <ele>-58</ele>
        <time>2026-06-10T15:13:08.000Z</time>
      </trkpt>
      <trkpt lat="32.54586940733797" lon="35.38766973587133">
        <ele>-59</ele>
        <time>2026-06-10T15:13:09.000Z</time>
      </trkpt>
      <trkpt lat="32.54588319091238" lon="35.3884911624005">
        <ele>-59</ele>
        <time>2026-06-10T15:13:10.000Z</time>
      </trkpt>
      <trkpt lat="32.54592025755168" lon="35.389011026673266">
        <ele>-61</ele>
        <time>2026-06-10T15:13:11.000Z</time>
      </trkpt>
      <trkpt lat="32.54592959309714" lon="35.38907945152019">
        <ele>-61</ele>
        <time>2026-06-10T15:13:12.000Z</time>
      </trkpt>
      <trkpt lat="32.54592959309714" lon="35.38907945152019">
        <ele>-61</ele>
        <time>2026-06-10T15:13:13.000Z</time>
      </trkpt>
      <trkpt lat="32.54604971139244" lon="35.389959858133494">
        <ele>-61</ele>
        <time>2026-06-10T15:13:14.000Z</time>
      </trkpt>
      <trkpt lat="32.54580998895638" lon="35.39115996042997">
        <ele>-62</ele>
        <time>2026-06-10T15:13:15.000Z</time>
      </trkpt>
      <trkpt lat="32.5456794175285" lon="35.39304346724697">
        <ele>-66</ele>
        <time>2026-06-10T15:13:16.000Z</time>
      </trkpt>
      <trkpt lat="32.545525190506694" lon="35.394088038670006">
        <ele>-65</ele>
        <time>2026-06-10T15:13:17.000Z</time>
      </trkpt>
      <trkpt lat="32.545145397152275" lon="35.394946345573956">
        <ele>-67</ele>
        <time>2026-06-10T15:13:18.000Z</time>
      </trkpt>
      <trkpt lat="32.54398776316616" lon="35.39741397792281">
        <ele>-69</ele>
        <time>2026-06-10T15:13:19.000Z</time>
      </trkpt>
      <trkpt lat="32.54368024044514" lon="35.39844402071336">
        <ele>-68</ele>
        <time>2026-06-10T15:13:20.000Z</time>
      </trkpt>
      <trkpt lat="32.54362709741462" lon="35.39864991804163">
        <ele>-68</ele>
        <time>2026-06-10T15:13:21.000Z</time>
      </trkpt>
      <trkpt lat="32.54362709741462" lon="35.39864991804163">
        <ele>-68</ele>
        <time>2026-06-10T15:13:22.000Z</time>
      </trkpt>
      <trkpt lat="32.54340885304083" lon="35.3994954839236">
        <ele>-68</ele>
        <time>2026-06-10T15:13:23.000Z</time>
      </trkpt>
      <trkpt lat="32.543155719559394" lon="35.40046107919055">
        <ele>-69</ele>
        <time>2026-06-10T15:13:24.000Z</time>
      </trkpt>
      <trkpt lat="32.54297485671136" lon="35.40372238465523">
        <ele>-73</ele>
        <time>2026-06-10T15:13:25.000Z</time>
      </trkpt>
      <trkpt lat="32.542685401648704" lon="35.404816874969384">
        <ele>-73</ele>
        <time>2026-06-10T15:13:26.000Z</time>
      </trkpt>
      <trkpt lat="32.542197016079655" lon="35.40556807977486">
        <ele>-74</ele>
        <time>2026-06-10T15:13:27.000Z</time>
      </trkpt>
      <trkpt lat="32.54096692519561" lon="35.407220246059154">
        <ele>-75</ele>
        <time>2026-06-10T15:13:28.000Z</time>
      </trkpt>
      <trkpt lat="32.5401529492472" lon="35.40936601331903">
        <ele>-74</ele>
        <time>2026-06-10T15:13:29.000Z</time>
      </trkpt>
      <trkpt lat="32.5392879525229" lon="35.41067372490223">
        <ele>-76.5</ele>
        <time>2026-06-10T15:13:30.000Z</time>
      </trkpt>
      <trkpt lat="32.5392879525229" lon="35.41067372490223">
        <ele>-76.5</ele>
        <time>2026-06-10T15:13:31.000Z</time>
      </trkpt>
      <trkpt lat="32.53923038108417" lon="35.41076076203795">
        <ele>-79</ele>
        <time>2026-06-10T15:13:32.000Z</time>
      </trkpt>
      <trkpt lat="32.538941671079584" lon="35.4111623483411">
        <ele>-79</ele>
        <time>2026-06-10T15:13:33.000Z</time>
      </trkpt>
      <trkpt lat="32.5386402950877" lon="35.41175392445372">
        <ele>-77</ele>
        <time>2026-06-10T15:13:34.000Z</time>
      </trkpt>
      <trkpt lat="32.538111117588976" lon="35.41221455660942">
        <ele>-79</ele>
        <time>2026-06-10T15:13:35.000Z</time>
      </trkpt>
      <trkpt lat="32.53779986957758" lon="35.413217963573736">
        <ele>-77</ele>
        <time>2026-06-10T15:13:36.000Z</time>
      </trkpt>
      <trkpt lat="32.53766184756894" lon="35.413571866160005">
        <ele>-77</ele>
        <time>2026-06-10T15:13:37.000Z</time>
      </trkpt>
      <trkpt lat="32.537574862038525" lon="35.41376297355659">
        <ele>-77</ele>
        <time>2026-06-10T15:13:38.000Z</time>
      </trkpt>
      <trkpt lat="32.53740275362289" lon="35.413986863508526">
        <ele>-78</ele>
        <time>2026-06-10T15:13:39.000Z</time>
      </trkpt>
      <trkpt lat="32.53716899165144" lon="35.41419492097635">
        <ele>-78</ele>
        <time>2026-06-10T15:13:40.000Z</time>
      </trkpt>
      <trkpt lat="32.53700191237782" lon="35.414282837829354">
        <ele>-81</ele>
        <time>2026-06-10T15:13:41.000Z</time>
      </trkpt>
      <trkpt lat="32.536755856948105" lon="35.414364980482276">
        <ele>-81</ele>
        <time>2026-06-10T15:13:42.000Z</time>
      </trkpt>
      <trkpt lat="32.53629485226337" lon="35.414484934832565">
        <ele>-81</ele>
        <time>2026-06-10T15:13:43.000Z</time>
      </trkpt>
      <trkpt lat="32.536161859396735" lon="35.41455869558212">
        <ele>-79</ele>
        <time>2026-06-10T15:13:44.000Z</time>
      </trkpt>
      <trkpt lat="32.535929960070476" lon="35.414746450217365">
        <ele>-79</ele>
        <time>2026-06-10T15:13:45.000Z</time>
      </trkpt>
      <trkpt lat="32.53580832933951" lon="35.41499529961486">
        <ele>-79</ele>
        <time>2026-06-10T15:13:46.000Z</time>
      </trkpt>
      <trkpt lat="32.53578543312245" lon="35.41506977257352">
        <ele>-79</ele>
        <time>2026-06-10T15:13:47.000Z</time>
      </trkpt>
      <trkpt lat="32.53578543312245" lon="35.41506977257352">
        <ele>-79</ele>
        <time>2026-06-10T15:13:48.000Z</time>
      </trkpt>
      <trkpt lat="32.53580832933951" lon="35.41499529961486">
        <ele>-79</ele>
        <time>2026-06-10T15:13:49.000Z</time>
      </trkpt>
      <trkpt lat="32.53617154515173" lon="35.41513835076552">
        <ele>-79</ele>
        <time>2026-06-10T15:13:50.000Z</time>
      </trkpt>
      <trkpt lat="32.53567682658904" lon="35.416881972928685">
        <ele>-81</ele>
        <time>2026-06-10T15:13:51.000Z</time>
      </trkpt>
      <trkpt lat="32.535173912387506" lon="35.41848589670254">
        <ele>-83</ele>
        <time>2026-06-10T15:13:52.000Z</time>
      </trkpt>
      <trkpt lat="32.53494387570643" lon="35.41911193175119">
        <ele>-84</ele>
        <time>2026-06-10T15:13:53.000Z</time>
      </trkpt>
      <trkpt lat="32.53460096272679" lon="35.41955188854527">
        <ele>-84</ele>
        <time>2026-06-10T15:13:54.000Z</time>
      </trkpt>
      <trkpt lat="32.5340486884277" lon="35.42016469881307">
        <ele>-85</ele>
        <time>2026-06-10T15:13:55.000Z</time>
      </trkpt>
      <trkpt lat="32.53395387978749" lon="35.4202928488022">
        <ele>-85</ele>
        <time>2026-06-10T15:13:56.000Z</time>
      </trkpt>
      <trkpt lat="32.53378884942358" lon="35.4205729906389">
        <ele>-85</ele>
        <time>2026-06-10T15:13:57.000Z</time>
      </trkpt>
      <trkpt lat="32.53346083760547" lon="35.42123795497204">
        <ele>-85</ele>
        <time>2026-06-10T15:13:58.000Z</time>
      </trkpt>
      <trkpt lat="32.533327844738835" lon="35.42154082108008">
        <ele>-86</ele>
        <time>2026-06-10T15:13:59.000Z</time>
      </trkpt>
      <trkpt lat="32.53318684249789" lon="35.422070929901395">
        <ele>-86</ele>
        <time>2026-06-10T15:14:00.000Z</time>
      </trkpt>
      <trkpt lat="32.53291899411944" lon="35.42349082433039">
        <ele>-87</ele>
        <time>2026-06-10T15:14:01.000Z</time>
      </trkpt>
      <trkpt lat="32.53271987734854" lon="35.424222843890405">
        <ele>-85</ele>
        <time>2026-06-10T15:14:02.000Z</time>
      </trkpt>
      <trkpt lat="32.53246599880902" lon="35.42478778417679">
        <ele>-87</ele>
        <time>2026-06-10T15:14:03.000Z</time>
      </trkpt>
      <trkpt lat="32.53246529063313" lon="35.424789033971535">
        <ele>-87</ele>
        <time>2026-06-10T15:14:04.000Z</time>
      </trkpt>
      <trkpt lat="32.53246529063313" lon="35.424789033971535">
        <ele>-87</ele>
        <time>2026-06-10T15:14:05.000Z</time>
      </trkpt>
      <trkpt lat="32.532145251307156" lon="35.42535384205029">
        <ele>-87</ele>
        <time>2026-06-10T15:14:06.000Z</time>
      </trkpt>
      <trkpt lat="32.53204373714426" lon="35.42553284225314">
        <ele>-87</ele>
        <time>2026-06-10T15:14:07.000Z</time>
      </trkpt>
      <trkpt lat="32.53177998658523" lon="35.4260428345064">
        <ele>-87</ele>
        <time>2026-06-10T15:14:08.000Z</time>
      </trkpt>
      <trkpt lat="32.53142291750214" lon="35.42688381881007">
        <ele>-85</ele>
        <time>2026-06-10T15:14:09.000Z</time>
      </trkpt>
      <trkpt lat="32.53122771228614" lon="35.427388781921316">
        <ele>-86</ele>
        <time>2026-06-10T15:14:10.000Z</time>
      </trkpt>
      <trkpt lat="32.53057299250155" lon="35.42933599120384">
        <ele>-87</ele>
        <time>2026-06-10T15:14:11.000Z</time>
      </trkpt>
      <trkpt lat="32.530475948687105" lon="35.42970293230645">
        <ele>-87</ele>
        <time>2026-06-10T15:14:12.000Z</time>
      </trkpt>
      <trkpt lat="32.53040684455053" lon="35.43003597326657">
        <ele>-87</ele>
        <time>2026-06-10T15:14:13.000Z</time>
      </trkpt>
      <trkpt lat="32.53030868314897" lon="35.430622706501694">
        <ele>-90</ele>
        <time>2026-06-10T15:14:14.000Z</time>
      </trkpt>
      <trkpt lat="32.53030086003916" lon="35.430836910698645">
        <ele>-90</ele>
        <time>2026-06-10T15:14:15.000Z</time>
      </trkpt>
      <trkpt lat="32.530260068109484" lon="35.4309751189718">
        <ele>-90</ele>
        <time>2026-06-10T15:14:16.000Z</time>
      </trkpt>
      <trkpt lat="32.53017364137263" lon="35.43118410776222">
        <ele>-90</ele>
        <time>2026-06-10T15:14:17.000Z</time>
      </trkpt>
      <trkpt lat="32.53016563199831" lon="35.43140389989474">
        <ele>-95</ele>
        <time>2026-06-10T15:14:18.000Z</time>
      </trkpt>
      <trkpt lat="32.53016563199831" lon="35.431666346602135">
        <ele>-95</ele>
        <time>2026-06-10T15:14:19.000Z</time>
      </trkpt>
      <trkpt lat="32.53019115023742" lon="35.431955429135755">
        <ele>-95</ele>
        <time>2026-06-10T15:14:20.000Z</time>
      </trkpt>
      <trkpt lat="32.53042209389787" lon="35.432847244761305">
        <ele>-92.5</ele>
        <time>2026-06-10T15:14:21.000Z</time>
      </trkpt>
      <trkpt lat="32.53042209389787" lon="35.432847244761305">
        <ele>-92.5</ele>
        <time>2026-06-10T15:14:22.000Z</time>
      </trkpt>
      <trkpt lat="32.530488614674404" lon="35.433104122424965">
        <ele>-90</ele>
        <time>2026-06-10T15:14:23.000Z</time>
      </trkpt>
      <trkpt lat="32.53073373878152" lon="35.433827387552576">
        <ele>-89</ele>
        <time>2026-06-10T15:14:24.000Z</time>
      </trkpt>
      <trkpt lat="32.53074584597526" lon="35.434033954904244">
        <ele>-89</ele>
        <time>2026-06-10T15:14:25.000Z</time>
      </trkpt>
      <trkpt lat="32.530680280864544" lon="35.43448229360168">
        <ele>-89</ele>
        <time>2026-06-10T15:14:26.000Z</time>
      </trkpt>
      <trkpt lat="32.53066146814812" lon="35.43475647497378">
        <ele>-90</ele>
        <time>2026-06-10T15:14:27.000Z</time>
      </trkpt>
      <trkpt lat="32.53069164300021" lon="35.43504388112673">
        <ele>-90</ele>
        <time>2026-06-10T15:14:28.000Z</time>
      </trkpt>
      <trkpt lat="32.530665938496576" lon="35.43522288132957">
        <ele>-90</ele>
        <time>2026-06-10T15:14:29.000Z</time>
      </trkpt>
      <trkpt lat="32.530640979051014" lon="35.43534693349928">
        <ele>-90</ele>
        <time>2026-06-10T15:14:30.000Z</time>
      </trkpt>
      <trkpt lat="32.530624960302376" lon="35.435644956729824">
        <ele>-91</ele>
        <time>2026-06-10T15:14:31.000Z</time>
      </trkpt>
      <trkpt lat="32.53059683435999" lon="35.43585580816543">
        <ele>-91</ele>
        <time>2026-06-10T15:14:32.000Z</time>
      </trkpt>
      <trkpt lat="32.53060167723749" lon="35.436697723791696">
        <ele>-92</ele>
        <time>2026-06-10T15:14:33.000Z</time>
      </trkpt>
      <trkpt lat="32.53060391241172" lon="35.43675285808935">
        <ele>-92</ele>
        <time>2026-06-10T15:14:34.000Z</time>
      </trkpt>
      <trkpt lat="32.53044894033184" lon="35.43788981671385">
        <ele>-90</ele>
        <time>2026-06-10T15:14:35.000Z</time>
      </trkpt>
      <trkpt lat="32.53043254905416" lon="35.43799337978646">
        <ele>-91</ele>
        <time>2026-06-10T15:14:36.000Z</time>
      </trkpt>
      <trkpt lat="32.53033699535587" lon="35.438601905970316">
        <ele>-92</ele>
        <time>2026-06-10T15:14:37.000Z</time>
      </trkpt>
      <trkpt lat="32.530340182799385" lon="35.43876677373839">
        <ele>-92.5</ele>
        <time>2026-06-10T15:14:38.000Z</time>
      </trkpt>
      <trkpt lat="32.530340182799385" lon="35.43876677373839">
        <ele>-92.5</ele>
        <time>2026-06-10T15:14:39.000Z</time>
      </trkpt>
      <trkpt lat="32.53034239702692" lon="35.438881302748946">
        <ele>-93</ele>
        <time>2026-06-10T15:14:40.000Z</time>
      </trkpt>
      <trkpt lat="32.53035282783999" lon="35.43903739241594">
        <ele>-93</ele>
        <time>2026-06-10T15:14:41.000Z</time>
      </trkpt>
      <trkpt lat="32.530325260691164" lon="35.43965616314835">
        <ele>-91</ele>
        <time>2026-06-10T15:14:42.000Z</time>
      </trkpt>
      <trkpt lat="32.5304202555959" lon="35.44075214357865">
        <ele>-93</ele>
        <time>2026-06-10T15:14:43.000Z</time>
      </trkpt>
      <trkpt lat="32.53039157085996" lon="35.44178293142728">
        <ele>-94</ele>
        <time>2026-06-10T15:14:44.000Z</time>
      </trkpt>
      <trkpt lat="32.530396227472934" lon="35.441987263604716">
        <ele>-94</ele>
        <time>2026-06-10T15:14:45.000Z</time>
      </trkpt>
      <trkpt lat="32.53038169884045" lon="35.442068661199556">
        <ele>-96</ele>
        <time>2026-06-10T15:14:46.000Z</time>
      </trkpt>
      <trkpt lat="32.53035226904643" lon="35.44215378408478">
        <ele>-94</ele>
        <time>2026-06-10T15:14:47.000Z</time>
      </trkpt>
      <trkpt lat="32.53032805465895" lon="35.442205379356565">
        <ele>-94</ele>
        <time>2026-06-10T15:14:48.000Z</time>
      </trkpt>
      <trkpt lat="32.53005908869339" lon="35.44264645373776">
        <ele>-94</ele>
        <time>2026-06-10T15:14:49.000Z</time>
      </trkpt>
      <trkpt lat="32.529479060980954" lon="35.443524877209775">
        <ele>-96</ele>
        <time>2026-06-10T15:14:50.000Z</time>
      </trkpt>
      <trkpt lat="32.529341225236834" lon="35.443717660987026">
        <ele>-96</ele>
        <time>2026-06-10T15:14:51.000Z</time>
      </trkpt>
      <trkpt lat="32.529205624666936" lon="35.443780990923514">
        <ele>-96</ele>
        <time>2026-06-10T15:14:52.000Z</time>
      </trkpt>
      <trkpt lat="32.52905810316782" lon="35.44390131780285">
        <ele>-95</ele>
        <time>2026-06-10T15:14:53.000Z</time>
      </trkpt>
      <trkpt lat="32.528979872069804" lon="35.44400190064315">
        <ele>-95</ele>
        <time>2026-06-10T15:14:54.000Z</time>
      </trkpt>
      <trkpt lat="32.52868054498763" lon="35.444459925095586">
        <ele>-95</ele>
        <time>2026-06-10T15:14:55.000Z</time>
      </trkpt>
      <trkpt lat="32.52804519671303" lon="35.445542308216">
        <ele>-97</ele>
        <time>2026-06-10T15:14:56.000Z</time>
      </trkpt>
      <trkpt lat="32.52784887390991" lon="35.44594482584174">
        <ele>-97</ele>
        <time>2026-06-10T15:14:57.000Z</time>
      </trkpt>
      <trkpt lat="32.527595181634915" lon="35.44655763610954">
        <ele>-97</ele>
        <time>2026-06-10T15:14:58.000Z</time>
      </trkpt>
      <trkpt lat="32.52729008035265" lon="35.44724960879795">
        <ele>-98</ele>
        <time>2026-06-10T15:14:59.000Z</time>
      </trkpt>
      <trkpt lat="32.52718987004138" lon="35.4474833707694">
        <ele>-98</ele>
        <time>2026-06-10T15:15:00.000Z</time>
      </trkpt>
      <trkpt lat="32.52645896806849" lon="35.449080961549605">
        <ele>-98</ele>
        <time>2026-06-10T15:15:01.000Z</time>
      </trkpt>
      <trkpt lat="32.52645859553945" lon="35.4491297628536">
        <ele>-98</ele>
        <time>2026-06-10T15:15:02.000Z</time>
      </trkpt>
      <trkpt lat="32.52644592955215" lon="35.44937786719303">
        <ele>-98</ele>
        <time>2026-06-10T15:15:03.000Z</time>
      </trkpt>
      <trkpt lat="32.526414823377465" lon="35.44950098804014">
        <ele>-98</ele>
        <time>2026-06-10T15:15:04.000Z</time>
      </trkpt>
      <trkpt lat="32.526363973163754" lon="35.44961162916448">
        <ele>-98</ele>
        <time>2026-06-10T15:15:05.000Z</time>
      </trkpt>
      <trkpt lat="32.52627587004623" lon="35.44968483112048">
        <ele>-98</ele>
        <time>2026-06-10T15:15:06.000Z</time>
      </trkpt>
      <trkpt lat="32.52608588023676" lon="35.44978485516723">
        <ele>-97</ele>
        <time>2026-06-10T15:15:07.000Z</time>
      </trkpt>
      <trkpt lat="32.52562487555202" lon="35.45009479932699">
        <ele>-97</ele>
        <time>2026-06-10T15:15:08.000Z</time>
      </trkpt>
      <trkpt lat="32.5252947528387" lon="35.45036595560166">
        <ele>-97.5</ele>
        <time>2026-06-10T15:15:09.000Z</time>
      </trkpt>
      <trkpt lat="32.5252947528387" lon="35.45036595560166">
        <ele>-97.5</ele>
        <time>2026-06-10T15:15:10.000Z</time>
      </trkpt>
      <trkpt lat="32.525211927113205" lon="35.45043398701625">
        <ele>-98</ele>
        <time>2026-06-10T15:15:11.000Z</time>
      </trkpt>
      <trkpt lat="32.524997909180776" lon="35.4506629061102">
        <ele>-100</ele>
        <time>2026-06-10T15:15:12.000Z</time>
      </trkpt>
      <trkpt lat="32.52494594137995" lon="35.45072288328535">
        <ele>-100</ele>
        <time>2026-06-10T15:15:13.000Z</time>
      </trkpt>
      <trkpt lat="32.52478687148065" lon="35.45100581908984">
        <ele>-100</ele>
        <time>2026-06-10T15:15:14.000Z</time>
      </trkpt>
      <trkpt lat="32.524626683994235" lon="35.45123585577091">
        <ele>-100</ele>
        <time>2026-06-10T15:15:15.000Z</time>
      </trkpt>
      <trkpt lat="32.524546962780065" lon="35.45142677690298">
        <ele>-100</ele>
        <time>2026-06-10T15:15:16.000Z</time>
      </trkpt>
      <trkpt lat="32.52428693751142" lon="35.45188685026512">
        <ele>-100</ele>
        <time>2026-06-10T15:15:17.000Z</time>
      </trkpt>
      <trkpt lat="32.52402188310076" lon="35.45217090365673">
        <ele>-101</ele>
        <time>2026-06-10T15:15:18.000Z</time>
      </trkpt>
      <trkpt lat="32.52381494322005" lon="35.45233891425294">
        <ele>-101</ele>
        <time>2026-06-10T15:15:19.000Z</time>
      </trkpt>
      <trkpt lat="32.52356888779034" lon="35.45250394461685">
        <ele>-100</ele>
        <time>2026-06-10T15:15:20.000Z</time>
      </trkpt>
      <trkpt lat="32.52333885110927" lon="35.45270492403295">
        <ele>-100</ele>
        <time>2026-06-10T15:15:21.000Z</time>
      </trkpt>
      <trkpt lat="32.52293689227708" lon="35.45312178402666">
        <ele>-101</ele>
        <time>2026-06-10T15:15:22.000Z</time>
      </trkpt>
      <trkpt lat="32.5228189868365" lon="35.453335988223614">
        <ele>-101</ele>
        <time>2026-06-10T15:15:23.000Z</time>
      </trkpt>
      <trkpt lat="32.52274392223531" lon="35.453427816631525">
        <ele>-101</ele>
        <time>2026-06-10T15:15:24.000Z</time>
      </trkpt>
      <trkpt lat="32.522717845202635" lon="35.453506979052136">
        <ele>-101</ele>
        <time>2026-06-10T15:15:25.000Z</time>
      </trkpt>
      <trkpt lat="32.522658985614605" lon="35.453612963563494">
        <ele>-101</ele>
        <time>2026-06-10T15:15:26.000Z</time>
      </trkpt>
      <trkpt lat="32.52263793772395" lon="35.45369491995189">
        <ele>-101</ele>
        <time>2026-06-10T15:15:27.000Z</time>
      </trkpt>
      <trkpt lat="32.52257982319399" lon="35.453802953372964">
        <ele>-99</ele>
        <time>2026-06-10T15:15:28.000Z</time>
      </trkpt>
      <trkpt lat="32.522253860285595" lon="35.45425594868338">
        <ele>-99</ele>
        <time>2026-06-10T15:15:29.000Z</time>
      </trkpt>
      <trkpt lat="32.52197688494571" lon="35.45452398332635">
        <ele>-102</ele>
        <time>2026-06-10T15:15:30.000Z</time>
      </trkpt>
      <trkpt lat="32.52174684826464" lon="35.4547938806145">
        <ele>-102</ele>
        <time>2026-06-10T15:15:31.000Z</time>
      </trkpt>
      <trkpt lat="32.52160994384311" lon="35.4549929973854">
        <ele>-102</ele>
        <time>2026-06-10T15:15:32.000Z</time>
      </trkpt>
      <trkpt lat="32.521341909200146" lon="35.455271835370475">
        <ele>-102</ele>
        <time>2026-06-10T15:15:33.000Z</time>
      </trkpt>
      <trkpt lat="32.52072798134524" lon="35.455989885091554">
        <ele>-103</ele>
        <time>2026-06-10T15:15:34.000Z</time>
      </trkpt>
      <trkpt lat="32.520254869466754" lon="35.456509935628844">
        <ele>-103</ele>
        <time>2026-06-10T15:15:35.000Z</time>
      </trkpt>
      <trkpt lat="32.52016099214914" lon="35.45663789935346">
        <ele>-103</ele>
        <time>2026-06-10T15:15:36.000Z</time>
      </trkpt>
      <trkpt lat="32.51993486702297" lon="35.45684297658897">
        <ele>-103</ele>
        <time>2026-06-10T15:15:37.000Z</time>
      </trkpt>
      <trkpt lat="32.51987306684081" lon="35.45686812286999">
        <ele>-103</ele>
        <time>2026-06-10T15:15:38.000Z</time>
      </trkpt>
      <trkpt lat="32.51987306684081" lon="35.45686812286999">
        <ele>-103</ele>
        <time>2026-06-10T15:15:39.000Z</time>
      </trkpt>
      <trkpt lat="32.51979982524663" lon="35.456897924622105">
        <ele>-103</ele>
        <time>2026-06-10T15:15:40.000Z</time>
      </trkpt>
      <trkpt lat="32.519590650191695" lon="35.45694784351322">
        <ele>-103</ele>
        <time>2026-06-10T15:15:41.000Z</time>
      </trkpt>
      <trkpt lat="32.519423757182594" lon="35.457021976791815">
        <ele>-104</ele>
        <time>2026-06-10T15:15:42.000Z</time>
      </trkpt>
      <trkpt lat="32.51931795893575" lon="35.45704097577276">
        <ele>-104</ele>
        <time>2026-06-10T15:15:43.000Z</time>
      </trkpt>
      <trkpt lat="32.519012857653486" lon="35.457155900981036">
        <ele>-104</ele>
        <time>2026-06-10T15:15:44.000Z</time>
      </trkpt>
      <trkpt lat="32.5189046379679" lon="35.45716297903276">
        <ele>-104</ele>
        <time>2026-06-10T15:15:45.000Z</time>
      </trkpt>
      <trkpt lat="32.518564891485084" lon="35.457278835563635">
        <ele>-103</ele>
        <time>2026-06-10T15:15:46.000Z</time>
      </trkpt>
      <trkpt lat="32.51845797565113" lon="35.45729187407997">
        <ele>-103</ele>
        <time>2026-06-10T15:15:47.000Z</time>
      </trkpt>
      <trkpt lat="32.51799492205668" lon="35.45750868598019">
        <ele>-103</ele>
        <time>2026-06-10T15:15:48.000Z</time>
      </trkpt>
      <trkpt lat="32.5178408812994" lon="35.45761485675607">
        <ele>-104</ele>
        <time>2026-06-10T15:15:49.000Z</time>
      </trkpt>
      <trkpt lat="32.51777382607253" lon="35.457642982698445">
        <ele>-104</ele>
        <time>2026-06-10T15:15:50.000Z</time>
      </trkpt>
      <trkpt lat="32.51726886296128" lon="35.458034883246604">
        <ele>-104</ele>
        <time>2026-06-10T15:15:51.000Z</time>
      </trkpt>
      <trkpt lat="32.517019827299265" lon="35.4582768408569">
        <ele>-107</ele>
        <time>2026-06-10T15:15:52.000Z</time>
      </trkpt>
      <trkpt lat="32.51679798625703" lon="35.45855698269361">
        <ele>-107</ele>
        <time>2026-06-10T15:15:53.000Z</time>
      </trkpt>
      <trkpt lat="32.51646699420662" lon="35.45906194580485">
        <ele>-105</ele>
        <time>2026-06-10T15:15:54.000Z</time>
      </trkpt>
      <trkpt lat="32.51638988069571" lon="35.459148931335264">
        <ele>-105</ele>
        <time>2026-06-10T15:15:55.000Z</time>
      </trkpt>
      <trkpt lat="32.51628687641666" lon="35.459323833718685">
        <ele>-105</ele>
        <time>2026-06-10T15:15:56.000Z</time>
      </trkpt>
      <trkpt lat="32.51614196262081" lon="35.459513823528155">
        <ele>-108</ele>
        <time>2026-06-10T15:15:57.000Z</time>
      </trkpt>
      <trkpt lat="32.51600096037986" lon="35.459643649897956">
        <ele>-106</ele>
        <time>2026-06-10T15:15:58.000Z</time>
      </trkpt>
      <trkpt lat="32.51584393939027" lon="35.459739948654324">
        <ele>-106</ele>
        <time>2026-06-10T15:15:59.000Z</time>
      </trkpt>
      <trkpt lat="32.51568486949097" lon="35.459757830048154">
        <ele>-106</ele>
        <time>2026-06-10T15:16:00.000Z</time>
      </trkpt>
      <trkpt lat="32.51562899013525" lon="35.45978893622284">
        <ele>-106</ele>
        <time>2026-06-10T15:16:01.000Z</time>
      </trkpt>
      <trkpt lat="32.515506986875245" lon="35.45977887793881">
        <ele>-106</ele>
        <time>2026-06-10T15:16:02.000Z</time>
      </trkpt>
      <trkpt lat="32.51522218842556" lon="35.45971890076367">
        <ele>-108</ele>
        <time>2026-06-10T15:16:03.000Z</time>
      </trkpt>
      <trkpt lat="32.51507988233298" lon="35.45968891217609">
        <ele>-108</ele>
        <time>2026-06-10T15:16:04.000Z</time>
      </trkpt>
      <trkpt lat="32.51493589985972" lon="35.459687980853495">
        <ele>-108</ele>
        <time>2026-06-10T15:16:05.000Z</time>
      </trkpt>
      <trkpt lat="32.51469096201713" lon="35.45972989037029">
        <ele>-108</ele>
        <time>2026-06-10T15:16:06.000Z</time>
      </trkpt>
      <trkpt lat="32.514320854417704" lon="35.45987182393384">
        <ele>-109</ele>
        <time>2026-06-10T15:16:07.000Z</time>
      </trkpt>
      <trkpt lat="32.51410888539498" lon="35.460006679445655">
        <ele>-109</ele>
        <time>2026-06-10T15:16:08.000Z</time>
      </trkpt>
      <trkpt lat="32.5139909799544" lon="35.46011992827326">
        <ele>-109</ele>
        <time>2026-06-10T15:16:09.000Z</time>
      </trkpt>
      <trkpt lat="32.51372089640172" lon="35.460501956801906">
        <ele>-107</ele>
        <time>2026-06-10T15:16:10.000Z</time>
      </trkpt>
      <trkpt lat="32.51364992961995" lon="35.46062396006191">
        <ele>-107</ele>
        <time>2026-06-10T15:16:11.000Z</time>
      </trkpt>
      <trkpt lat="32.51317178859946" lon="35.46186597187518">
        <ele>-107</ele>
        <time>2026-06-10T15:16:12.000Z</time>
      </trkpt>
      <trkpt lat="32.51311987423842" lon="35.461972241417115">
        <ele>-107</ele>
        <time>2026-06-10T15:16:13.000Z</time>
      </trkpt>
      <trkpt lat="32.51311987423842" lon="35.461972241417115">
        <ele>-107</ele>
        <time>2026-06-10T15:16:14.000Z</time>
      </trkpt>
      <trkpt lat="32.5130687843204" lon="35.46207682331078">
        <ele>-107</ele>
        <time>2026-06-10T15:16:15.000Z</time>
      </trkpt>
      <trkpt lat="32.51291791005994" lon="35.46225489219103">
        <ele>-107</ele>
        <time>2026-06-10T15:16:16.000Z</time>
      </trkpt>
      <trkpt lat="32.51248577637566" lon="35.462632822900254">
        <ele>-108</ele>
        <time>2026-06-10T15:16:17.000Z</time>
      </trkpt>
      <trkpt lat="32.512321863598864" lon="35.46279692194157">
        <ele>-108</ele>
        <time>2026-06-10T15:16:18.000Z</time>
      </trkpt>
      <trkpt lat="32.511924933908695" lon="35.46322495780643">
        <ele>-112</ele>
        <time>2026-06-10T15:16:19.000Z</time>
      </trkpt>
      <trkpt lat="32.51177685361602" lon="35.463406938241576">
        <ele>-112</ele>
        <time>2026-06-10T15:16:20.000Z</time>
      </trkpt>
      <trkpt lat="32.511692848317914" lon="35.46359189890903">
        <ele>-112</ele>
        <time>2026-06-10T15:16:21.000Z</time>
      </trkpt>
      <trkpt lat="32.51146988968856" lon="35.464306782133285">
        <ele>-112</ele>
        <time>2026-06-10T15:16:22.000Z</time>
      </trkpt>
      <trkpt lat="32.51119999240041" lon="35.46488196696822">
        <ele>-112</ele>
        <time>2026-06-10T15:16:23.000Z</time>
      </trkpt>
      <trkpt lat="32.51105694124975" lon="35.4653228550849">
        <ele>-112</ele>
        <time>2026-06-10T15:16:24.000Z</time>
      </trkpt>
      <trkpt lat="32.511019874610454" lon="35.46562683878005">
        <ele>-112</ele>
        <time>2026-06-10T15:16:25.000Z</time>
      </trkpt>
      <trkpt lat="32.5110349620365" lon="35.4663709655338">
        <ele>-111</ele>
        <time>2026-06-10T15:16:26.000Z</time>
      </trkpt>
      <trkpt lat="32.510876823459796" lon="35.46774187239428">
        <ele>-112</ele>
        <time>2026-06-10T15:16:27.000Z</time>
      </trkpt>
      <trkpt lat="32.51085484424654" lon="35.468165996704236">
        <ele>-113</ele>
        <time>2026-06-10T15:16:28.000Z</time>
      </trkpt>
      <trkpt lat="32.510855961833656" lon="35.46881587361133">
        <ele>-115</ele>
        <time>2026-06-10T15:16:29.000Z</time>
      </trkpt>
      <trkpt lat="32.510881852601806" lon="35.46917499160413">
        <ele>-115</ele>
        <time>2026-06-10T15:16:30.000Z</time>
      </trkpt>
      <trkpt lat="32.51095877984819" lon="35.46970677680612">
        <ele>-114</ele>
        <time>2026-06-10T15:16:31.000Z</time>
      </trkpt>
      <trkpt lat="32.51097498486135" lon="35.46981872178209">
        <ele>-114</ele>
        <time>2026-06-10T15:16:32.000Z</time>
      </trkpt>
      <trkpt lat="32.51094499627378" lon="35.47022682734341">
        <ele>-114</ele>
        <time>2026-06-10T15:16:33.000Z</time>
      </trkpt>
      <trkpt lat="32.51097386727424" lon="35.47068094024094">
        <ele>-113</ele>
        <time>2026-06-10T15:16:34.000Z</time>
      </trkpt>
      <trkpt lat="32.511038873591396" lon="35.47108289907313">
        <ele>-113</ele>
        <time>2026-06-10T15:16:35.000Z</time>
      </trkpt>
      <trkpt lat="32.51106142311233" lon="35.471160500110265">
        <ele>-111.5</ele>
        <time>2026-06-10T15:16:36.000Z</time>
      </trkpt>
      <trkpt lat="32.51106142311233" lon="35.471160500110265">
        <ele>-111.5</ele>
        <time>2026-06-10T15:16:37.000Z</time>
      </trkpt>
      <trkpt lat="32.51124693105922" lon="35.4717988998845">
        <ele>-110</ele>
        <time>2026-06-10T15:16:38.000Z</time>
      </trkpt>
      <trkpt lat="32.51124804864633" lon="35.4718555242983">
        <ele>-110</ele>
        <time>2026-06-10T15:16:39.000Z</time>
      </trkpt>
      <trkpt lat="32.51121284465223" lon="35.47199689906829">
        <ele>-112</ele>
        <time>2026-06-10T15:16:40.000Z</time>
      </trkpt>
      <trkpt lat="32.51100385586181" lon="35.47228598160191">
        <ele>-115</ele>
        <time>2026-06-10T15:16:41.000Z</time>
      </trkpt>
      <trkpt lat="32.510896940027855" lon="35.47249385280521">
        <ele>-115</ele>
        <time>2026-06-10T15:16:42.000Z</time>
      </trkpt>
      <trkpt lat="32.51072092005732" lon="35.47290996774085">
        <ele>-115</ele>
        <time>2026-06-10T15:16:43.000Z</time>
      </trkpt>
      <trkpt lat="32.510635983436615" lon="35.473477888259545">
        <ele>-114</ele>
        <time>2026-06-10T15:16:44.000Z</time>
      </trkpt>
      <trkpt lat="32.510549929228794" lon="35.47376492188346">
        <ele>-114</ele>
        <time>2026-06-10T15:16:45.000Z</time>
      </trkpt>
      <trkpt lat="32.51018783100369" lon="35.4747169198405">
        <ele>-117</ele>
        <time>2026-06-10T15:16:46.000Z</time>
      </trkpt>
      <trkpt lat="32.51000994838797" lon="35.475334759250316">
        <ele>-117</ele>
        <time>2026-06-10T15:16:47.000Z</time>
      </trkpt>
      <trkpt lat="32.5098922292119" lon="35.475631851158255">
        <ele>-117</ele>
        <time>2026-06-10T15:16:48.000Z</time>
      </trkpt>
      <trkpt lat="32.50972682631895" lon="35.475844937768095">
        <ele>-117</ele>
        <time>2026-06-10T15:16:49.000Z</time>
      </trkpt>
      <trkpt lat="32.50948691761837" lon="35.4763446854728">
        <ele>-118</ele>
        <time>2026-06-10T15:16:50.000Z</time>
      </trkpt>
      <trkpt lat="32.50936472809385" lon="35.47688298993296">
        <ele>-118</ele>
        <time>2026-06-10T15:16:51.000Z</time>
      </trkpt>
      <trkpt lat="32.50902133365262" lon="35.4779432635821">
        <ele>-121</ele>
        <time>2026-06-10T15:16:52.000Z</time>
      </trkpt>
      <trkpt lat="32.50907100354681" lon="35.477965883910656">
        <ele>-121</ele>
        <time>2026-06-10T15:16:53.000Z</time>
      </trkpt>
      <trkpt lat="32.50884424538491" lon="35.47794744372368">
        <ele>-123.5</ele>
        <time>2026-06-10T15:16:54.000Z</time>
      </trkpt>
      <trkpt lat="32.50884424538491" lon="35.47794744372368">
        <ele>-123.5</ele>
        <time>2026-06-10T15:16:55.000Z</time>
      </trkpt>
      <trkpt lat="32.50870739853667" lon="35.47778785228729">
        <ele>-118.5</ele>
        <time>2026-06-10T15:16:56.000Z</time>
      </trkpt>
      <trkpt lat="32.50870739853667" lon="35.47778785228729">
        <ele>-118.5</ele>
        <time>2026-06-10T15:16:57.000Z</time>
      </trkpt>
      <trkpt lat="32.508956776314804" lon="35.47760982066393">
        <ele>-123</ele>
        <time>2026-06-10T15:16:58.000Z</time>
      </trkpt>
      <trkpt lat="32.508956776314804" lon="35.47760982066393">
        <ele>-123</ele>
        <time>2026-06-10T15:16:59.000Z</time>
      </trkpt>
      <trkpt lat="32.50893698445292" lon="35.47711260616779">
        <ele>-120.5</ele>
        <time>2026-06-10T15:17:00.000Z</time>
      </trkpt>
      <trkpt lat="32.50893698445292" lon="35.47711260616779">
        <ele>-120.5</ele>
        <time>2026-06-10T15:17:01.000Z</time>
      </trkpt>
      <trkpt lat="32.5092112427223" lon="35.47654263675213">
        <ele>-117</ele>
        <time>2026-06-10T15:17:02.000Z</time>
      </trkpt>
      <trkpt lat="32.5092112427223" lon="35.47654263675213">
        <ele>-117</ele>
        <time>2026-06-10T15:17:03.000Z</time>
      </trkpt>
      <trkpt lat="32.50942640764488" lon="35.47586169093847">
        <ele>-116</ele>
        <time>2026-06-10T15:17:04.000Z</time>
      </trkpt>
      <trkpt lat="32.50942640764488" lon="35.47586169093847">
        <ele>-116</ele>
        <time>2026-06-10T15:17:05.000Z</time>
      </trkpt>
      <trkpt lat="32.50941227067498" lon="35.47568701207638">
        <ele>-116</ele>
        <time>2026-06-10T15:17:06.000Z</time>
      </trkpt>
      <trkpt lat="32.50941227067498" lon="35.47568701207638">
        <ele>-116</ele>
        <time>2026-06-10T15:17:07.000Z</time>
      </trkpt>
      <trkpt lat="32.509010214320114" lon="35.47686014324427">
        <ele>-118</ele>
        <time>2026-06-10T15:17:08.000Z</time>
      </trkpt>
      <trkpt lat="32.509010214320114" lon="35.47686014324427">
        <ele>-118</ele>
        <time>2026-06-10T15:17:09.000Z</time>
      </trkpt>
      <trkpt lat="32.508871105795556" lon="35.47759138047695">
        <ele>-123</ele>
        <time>2026-06-10T15:17:10.000Z</time>
      </trkpt>
      <trkpt lat="32.508871105795556" lon="35.47759138047695">
        <ele>-123</ele>
        <time>2026-06-10T15:17:11.000Z</time>
      </trkpt>
      <trkpt lat="32.50864378164581" lon="35.477719120681286">
        <ele>-114</ele>
        <time>2026-06-10T15:17:12.000Z</time>
      </trkpt>
      <trkpt lat="32.50864378164581" lon="35.477719120681286">
        <ele>-114</ele>
        <time>2026-06-10T15:17:13.000Z</time>
      </trkpt>
      <trkpt lat="32.50896667224409" lon="35.47820225358009">
        <ele>-124</ele>
        <time>2026-06-10T15:17:14.000Z</time>
      </trkpt>
      <trkpt lat="32.50899391214007" lon="35.47820561574168">
        <ele>-124</ele>
        <time>2026-06-10T15:17:15.000Z</time>
      </trkpt>
      <trkpt lat="32.50899294411375" lon="35.47821664388962">
        <ele>-124</ele>
        <time>2026-06-10T15:17:16.000Z</time>
      </trkpt>
      <trkpt lat="32.508914899280256" lon="35.47928598849369">
        <ele>-122</ele>
        <time>2026-06-10T15:17:17.000Z</time>
      </trkpt>
      <trkpt lat="32.508769985484406" lon="35.47999584257593">
        <ele>-122</ele>
        <time>2026-06-10T15:17:18.000Z</time>
      </trkpt>
      <trkpt lat="32.50880090539457" lon="35.480521853577834">
        <ele>-124</ele>
        <time>2026-06-10T15:17:19.000Z</time>
      </trkpt>
      <trkpt lat="32.50879301346982" lon="35.48063980457368">
        <ele>-124</ele>
        <time>2026-06-10T15:17:20.000Z</time>
      </trkpt>
      <trkpt lat="32.50879301346982" lon="35.48063980457368">
        <ele>-124</ele>
        <time>2026-06-10T15:17:21.000Z</time>
      </trkpt>
      <trkpt lat="32.508769985484406" lon="35.48098397584969">
        <ele>-124</ele>
        <time>2026-06-10T15:17:22.000Z</time>
      </trkpt>
      <trkpt lat="32.50887690131836" lon="35.48162081424044">
        <ele>-123</ele>
        <time>2026-06-10T15:17:23.000Z</time>
      </trkpt>
      <trkpt lat="32.508914899280256" lon="35.482341844193826">
        <ele>-126</ele>
        <time>2026-06-10T15:17:24.000Z</time>
      </trkpt>
      <trkpt lat="32.50908290987647" lon="35.482947948938936">
        <ele>-128</ele>
        <time>2026-06-10T15:17:25.000Z</time>
      </trkpt>
      <trkpt lat="32.50907490050215" lon="35.48321486599479">
        <ele>-128</ele>
        <time>2026-06-10T15:17:26.000Z</time>
      </trkpt>
      <trkpt lat="32.508990522675006" lon="35.48338939584917">
        <ele>-128</ele>
        <time>2026-06-10T15:17:27.000Z</time>
      </trkpt>
      <trkpt lat="32.50892950864042" lon="35.48351537853169">
        <ele>-127.5</ele>
        <time>2026-06-10T15:17:28.000Z</time>
      </trkpt>
      <trkpt lat="32.50892950864042" lon="35.48351537853169">
        <ele>-127.5</ele>
        <time>2026-06-10T15:17:29.000Z</time>
      </trkpt>
      <trkpt lat="32.50870889072215" lon="35.48397091367776">
        <ele>-127</ele>
        <time>2026-06-10T15:17:30.000Z</time>
      </trkpt>
      <trkpt lat="32.50875174855957" lon="35.484225862864484">
        <ele>-128</ele>
        <time>2026-06-10T15:17:31.000Z</time>
      </trkpt>
      <trkpt lat="32.50875174855957" lon="35.484225862864484">
        <ele>-128</ele>
        <time>2026-06-10T15:17:32.000Z</time>
      </trkpt>
      <trkpt lat="32.50896262966315" lon="35.48548033507041">
        <ele>-128</ele>
        <time>2026-06-10T15:17:33.000Z</time>
      </trkpt>
      <trkpt lat="32.50896262966315" lon="35.48548033507041">
        <ele>-128</ele>
        <time>2026-06-10T15:17:34.000Z</time>
      </trkpt>
      <trkpt lat="32.50901399200441" lon="35.485785875151734">
        <ele>-129</ele>
        <time>2026-06-10T15:17:35.000Z</time>
      </trkpt>
      <trkpt lat="32.50902870690142" lon="35.487025838055295">
        <ele>-130</ele>
        <time>2026-06-10T15:17:36.000Z</time>
      </trkpt>
      <trkpt lat="32.50886498038914" lon="35.48760567950321">
        <ele>-131</ele>
        <time>2026-06-10T15:17:37.000Z</time>
      </trkpt>
      <trkpt lat="32.50875489805836" lon="35.487815972145256">
        <ele>-131</ele>
        <time>2026-06-10T15:17:38.000Z</time>
      </trkpt>
      <trkpt lat="32.508480716686265" lon="35.48821401942255">
        <ele>-134</ele>
        <time>2026-06-10T15:17:39.000Z</time>
      </trkpt>
      <trkpt lat="32.508416641691696" lon="35.48847832877513">
        <ele>-134</ele>
        <time>2026-06-10T15:17:40.000Z</time>
      </trkpt>
      <trkpt lat="32.50839987788498" lon="35.488734815017914">
        <ele>-134</ele>
        <time>2026-06-10T15:17:41.000Z</time>
      </trkpt>
      <trkpt lat="32.50834269467762" lon="35.48955493769545">
        <ele>-133</ele>
        <time>2026-06-10T15:17:42.000Z</time>
      </trkpt>
      <trkpt lat="32.508162763152185" lon="35.49014688633711">
        <ele>-134</ele>
        <time>2026-06-10T15:17:43.000Z</time>
      </trkpt>
      <trkpt lat="32.5081599691844" lon="35.49051289611711">
        <ele>-133</ele>
        <time>2026-06-10T15:17:44.000Z</time>
      </trkpt>
      <trkpt lat="32.5080448577116" lon="35.49106591547428">
        <ele>-133</ele>
        <time>2026-06-10T15:17:45.000Z</time>
      </trkpt>
      <trkpt lat="32.50790227407644" lon="35.49143820240974">
        <ele>-135</ele>
        <time>2026-06-10T15:17:46.000Z</time>
      </trkpt>
      <trkpt lat="32.50790227407644" lon="35.49143820240974">
        <ele>-135</ele>
        <time>2026-06-10T15:17:47.000Z</time>
      </trkpt>
      <trkpt lat="32.507445831018224" lon="35.49262997864105">
        <ele>-137</ele>
        <time>2026-06-10T15:17:48.000Z</time>
      </trkpt>
      <trkpt lat="32.50692391783574" lon="35.49336199820106">
        <ele>-136</ele>
        <time>2026-06-10T15:17:49.000Z</time>
      </trkpt>
      <trkpt lat="32.50687101871232" lon="35.49356465399782">
        <ele>-136</ele>
        <time>2026-06-10T15:17:50.000Z</time>
      </trkpt>
      <trkpt lat="32.50681681573727" lon="35.49377792687218">
        <ele>-142</ele>
        <time>2026-06-10T15:17:51.000Z</time>
      </trkpt>
      <trkpt lat="32.50686282307348" lon="35.494090664999725">
        <ele>-142</ele>
        <time>2026-06-10T15:17:52.000Z</time>
      </trkpt>
      <trkpt lat="32.50712582857443" lon="35.49465895804746">
        <ele>-140</ele>
        <time>2026-06-10T15:17:53.000Z</time>
      </trkpt>
      <trkpt lat="32.50721393169196" lon="35.49511698249989">
        <ele>-140</ele>
        <time>2026-06-10T15:17:54.000Z</time>
      </trkpt>
      <trkpt lat="32.507351198420096" lon="35.49526447631836">
        <ele>-140</ele>
        <time>2026-06-10T15:17:55.000Z</time>
      </trkpt>
      <trkpt lat="32.507314319697834" lon="35.49531273543835">
        <ele>-140</ele>
        <time>2026-06-10T15:17:56.000Z</time>
      </trkpt>
      <trkpt lat="32.50760696135033" lon="35.49556955695152">
        <ele>-144</ele>
        <time>2026-06-10T15:17:57.000Z</time>
      </trkpt>
      <trkpt lat="32.50760696135033" lon="35.49556955695152">
        <ele>-144</ele>
        <time>2026-06-10T15:17:58.000Z</time>
      </trkpt>
      <trkpt lat="32.506562212144" lon="35.49538683146238">
        <ele>-142</ele>
        <time>2026-06-10T15:17:59.000Z</time>
      </trkpt>
      <trkpt lat="32.506562212144" lon="35.49538683146238">
        <ele>-142</ele>
        <time>2026-06-10T15:18:00.000Z</time>
      </trkpt>
      <trkpt lat="32.50551914730806" lon="35.49366284161806">
        <ele>-133</ele>
        <time>2026-06-10T15:18:01.000Z</time>
      </trkpt>
      <trkpt lat="32.505528418306206" lon="35.493630221529926">
        <ele>-133</ele>
        <time>2026-06-10T15:18:02.000Z</time>
      </trkpt>
      <trkpt lat="32.50563608495078" lon="35.49367324621245">
        <ele>-133</ele>
        <time>2026-06-10T15:18:03.000Z</time>
      </trkpt>
      <trkpt lat="32.505695875861406" lon="35.49370323480002">
        <ele>-133</ele>
        <time>2026-06-10T15:18:04.000Z</time>
      </trkpt>
      <trkpt lat="32.50575659809463" lon="35.49373191953596">
        <ele>-133</ele>
        <time>2026-06-10T15:18:05.000Z</time>
      </trkpt>
      <trkpt lat="32.50576647011414" lon="35.49374346793615">
        <ele>-133</ele>
        <time>2026-06-10T15:18:06.000Z</time>
      </trkpt>
      <trkpt lat="32.5057983213469" lon="35.49376134932998">
        <ele>-133</ele>
        <time>2026-06-10T15:18:07.000Z</time>
      </trkpt>
      <trkpt lat="32.50582998631515" lon="35.49376600594296">
        <ele>-133</ele>
        <time>2026-06-10T15:18:08.000Z</time>
      </trkpt>
      <trkpt lat="32.50588959096125" lon="35.493741419026435">
        <ele>-133</ele>
        <time>2026-06-10T15:18:09.000Z</time>
      </trkpt>
      <trkpt lat="32.50591194270354" lon="35.49371441067117">
        <ele>-133</ele>
        <time>2026-06-10T15:18:10.000Z</time>
      </trkpt>
      <trkpt lat="32.505927216394106" lon="35.493678461618984">
        <ele>-133</ele>
        <time>2026-06-10T15:18:11.000Z</time>
      </trkpt>
      <trkpt lat="32.50593205927161" lon="35.49363841474738">
        <ele>-133</ele>
        <time>2026-06-10T15:18:12.000Z</time>
      </trkpt>
      <trkpt lat="32.50592572627796" lon="35.493598926669335">
        <ele>-133</ele>
        <time>2026-06-10T15:18:13.000Z</time>
      </trkpt>
      <trkpt lat="32.505909335000275" lon="35.493563722675226">
        <ele>-133</ele>
        <time>2026-06-10T15:18:14.000Z</time>
      </trkpt>
      <trkpt lat="32.5058841892902" lon="35.493536528055444">
        <ele>-133</ele>
        <time>2026-06-10T15:18:15.000Z</time>
      </trkpt>
      <trkpt lat="32.50581899670852" lon="35.49351678401642">
        <ele>-133</ele>
        <time>2026-06-10T15:18:16.000Z</time>
      </trkpt>
      <trkpt lat="32.5057856553596" lon="35.49352646977141">
        <ele>-133</ele>
        <time>2026-06-10T15:18:17.000Z</time>
      </trkpt>
      <trkpt lat="32.50575659809463" lon="35.49354826272015">
        <ele>-133</ele>
        <time>2026-06-10T15:18:18.000Z</time>
      </trkpt>
      <trkpt lat="32.50569941488727" lon="35.49359594643703">
        <ele>-133</ele>
        <time>2026-06-10T15:18:19.000Z</time>
      </trkpt>
      <trkpt lat="32.505599949634075" lon="35.49362817019883">
        <ele>-133</ele>
        <time>2026-06-10T15:18:20.000Z</time>
      </trkpt>
      <trkpt lat="32.50544497755419" lon="35.49359687775963">
        <ele>-133</ele>
        <time>2026-06-10T15:18:21.000Z</time>
      </trkpt>
      <trkpt lat="32.504666019335374" lon="35.493368703723746">
        <ele>-131</ele>
        <time>2026-06-10T15:18:22.000Z</time>
      </trkpt>
      <trkpt lat="32.50408915811976" lon="35.49319976180493">
        <ele>-130</ele>
        <time>2026-06-10T15:18:23.000Z</time>
      </trkpt>
      <trkpt lat="32.50400999569915" lon="35.49317647874005">
        <ele>-130</ele>
        <time>2026-06-10T15:18:24.000Z</time>
      </trkpt>
      <trkpt lat="32.50357376419545" lon="35.49304870127995">
        <ele>-127</ele>
        <time>2026-06-10T15:18:25.000Z</time>
      </trkpt>
      <trkpt lat="32.503294181152306" lon="35.492966744891554">
        <ele>-127</ele>
        <time>2026-06-10T15:18:26.000Z</time>
      </trkpt>
      <trkpt lat="32.50297958037957" lon="35.492874543954606">
        <ele>-127</ele>
        <time>2026-06-10T15:18:27.000Z</time>
      </trkpt>
      <trkpt lat="32.50280709943489" lon="35.4928071161987">
        <ele>-123</ele>
        <time>2026-06-10T15:18:28.000Z</time>
      </trkpt>
      <trkpt lat="32.50272197654967" lon="35.49277507870141">
        <ele>-123</ele>
        <time>2026-06-10T15:18:29.000Z</time>
      </trkpt>
      <trkpt lat="32.50255135825019" lon="35.492764275359306">
        <ele>-123</ele>
        <time>2026-06-10T15:18:30.000Z</time>
      </trkpt>
      <trkpt lat="32.50249044975244" lon="35.492783274340255">
        <ele>-123</ele>
        <time>2026-06-10T15:18:31.000Z</time>
      </trkpt>
      <trkpt lat="32.50247424473928" lon="35.49277507870141">
        <ele>-123</ele>
        <time>2026-06-10T15:18:32.000Z</time>
      </trkpt>
      <trkpt lat="32.50246027490035" lon="35.49277321605623">
        <ele>-123</ele>
        <time>2026-06-10T15:18:33.000Z</time>
      </trkpt>
      <trkpt lat="32.50244425615171" lon="35.492771167146515">
        <ele>-123</ele>
        <time>2026-06-10T15:18:34.000Z</time>
      </trkpt>
      <trkpt lat="32.50241426756414" lon="35.49277712761113">
        <ele>-123</ele>
        <time>2026-06-10T15:18:35.000Z</time>
      </trkpt>
      <trkpt lat="32.502386700415315" lon="35.49279277383073">
        <ele>-123</ele>
        <time>2026-06-10T15:18:36.000Z</time>
      </trkpt>
      <trkpt lat="32.502364162408504" lon="35.49281642942465">
        <ele>-123</ele>
        <time>2026-06-10T15:18:37.000Z</time>
      </trkpt>
      <trkpt lat="32.50235075136313" lon="35.492839898754056">
        <ele>-123</ele>
        <time>2026-06-10T15:18:38.000Z</time>
      </trkpt>
      <trkpt lat="32.50234199693073" lon="35.49286616205125">
        <ele>-123</ele>
        <time>2026-06-10T15:18:39.000Z</time>
      </trkpt>
      <trkpt lat="32.502338271640355" lon="35.492894101729114">
        <ele>-123</ele>
        <time>2026-06-10T15:18:40.000Z</time>
      </trkpt>
      <trkpt lat="32.5023250468595" lon="35.49295165746551">
        <ele>-122</ele>
        <time>2026-06-10T15:18:41.000Z</time>
      </trkpt>
      <trkpt lat="32.50230586161403" lon="35.49298742025317">
        <ele>-122</ele>
        <time>2026-06-10T15:18:42.000Z</time>
      </trkpt>
      <trkpt lat="32.502269540032806" lon="35.493023928098914">
        <ele>-122</ele>
        <time>2026-06-10T15:18:43.000Z</time>
      </trkpt>
      <trkpt lat="32.50216299672789" lon="35.49304106443467">
        <ele>-122</ele>
        <time>2026-06-10T15:18:44.000Z</time>
      </trkpt>
      <trkpt lat="32.502094078855826" lon="35.49301331102133">
        <ele>-122</ele>
        <time>2026-06-10T15:18:45.000Z</time>
      </trkpt>
      <trkpt lat="32.5017375685663" lon="35.49263333140239">
        <ele>-120</ele>
        <time>2026-06-10T15:18:46.000Z</time>
      </trkpt>
      <trkpt lat="32.50145090747142" lon="35.49232785759109">
        <ele>-120</ele>
        <time>2026-06-10T15:18:47.000Z</time>
      </trkpt>
      <trkpt lat="32.50115996229261" lon="35.49201772716681">
        <ele>-118</ele>
        <time>2026-06-10T15:18:48.000Z</time>
      </trkpt>
      <trkpt lat="32.50094035642461" lon="35.49178377893084">
        <ele>-118</ele>
        <time>2026-06-10T15:18:49.000Z</time>
      </trkpt>
      <trkpt lat="32.50031562522759" lon="35.4911178832751">
        <ele>-118</ele>
        <time>2026-06-10T15:18:50.000Z</time>
      </trkpt>
      <trkpt lat="32.500302400446735" lon="35.491103727171655">
        <ele>-118</ele>
        <time>2026-06-10T15:18:51.000Z</time>
      </trkpt>
      <trkpt lat="32.50023907051025" lon="35.49104579890622">
        <ele>-118</ele>
        <time>2026-06-10T15:18:52.000Z</time>
      </trkpt>
      <trkpt lat="32.50021951273575" lon="35.491028662570464">
        <ele>-118</ele>
        <time>2026-06-10T15:18:53.000Z</time>
      </trkpt>
      <trkpt lat="32.5001722015479" lon="35.490987684376265">
        <ele>-118</ele>
        <time>2026-06-10T15:18:54.000Z</time>
      </trkpt>
      <trkpt lat="32.50007981434643" lon="35.490888964181146">
        <ele>-118</ele>
        <time>2026-06-10T15:18:55.000Z</time>
      </trkpt>
      <trkpt lat="32.50004759058463" lon="35.49083215350282">
        <ele>-118</ele>
        <time>2026-06-10T15:18:56.000Z</time>
      </trkpt>
      <trkpt lat="32.500037532300595" lon="35.49080402756044">
        <ele>-118</ele>
        <time>2026-06-10T15:18:57.000Z</time>
      </trkpt>
      <trkpt lat="32.50000791624206" lon="35.490769568624415">
        <ele>-118</ele>
        <time>2026-06-10T15:18:58.000Z</time>
      </trkpt>
      <trkpt lat="32.49997029080921" lon="35.490749265791834">
        <ele>-118</ele>
        <time>2026-06-10T15:18:59.000Z</time>
      </trkpt>
      <trkpt lat="32.49992875382145" lon="35.49074516797241">
        <ele>-118</ele>
        <time>2026-06-10T15:19:00.000Z</time>
      </trkpt>
      <trkpt lat="32.499853875484774" lon="35.49078838134084">
        <ele>-118</ele>
        <time>2026-06-10T15:19:01.000Z</time>
      </trkpt>
      <trkpt lat="32.49983077868441" lon="35.49082935953504">
        <ele>-118</ele>
        <time>2026-06-10T15:19:02.000Z</time>
      </trkpt>
      <trkpt lat="32.4998209066649" lon="35.49087722951644">
        <ele>-118</ele>
        <time>2026-06-10T15:19:03.000Z</time>
      </trkpt>
      <trkpt lat="32.49980842694212" lon="35.49095546061446">
        <ele>-118</ele>
        <time>2026-06-10T15:19:04.000Z</time>
      </trkpt>
      <trkpt lat="32.499750684941205" lon="35.491088639745605">
        <ele>-118</ele>
        <time>2026-06-10T15:19:05.000Z</time>
      </trkpt>
      <trkpt lat="32.49972553923113" lon="35.49111564810087">
        <ele>-118</ele>
        <time>2026-06-10T15:19:06.000Z</time>
      </trkpt>
      <trkpt lat="32.499694619320955" lon="35.49114861692075">
        <ele>-118</ele>
        <time>2026-06-10T15:19:07.000Z</time>
      </trkpt>
      <trkpt lat="32.49957354738355" lon="35.491228896928476">
        <ele>-119</ele>
        <time>2026-06-10T15:19:08.000Z</time>
      </trkpt>
      <trkpt lat="32.49947575851103" lon="35.491293530716604">
        <ele>-120</ele>
        <time>2026-06-10T15:19:09.000Z</time>
      </trkpt>
      <trkpt lat="32.499439995723364" lon="35.49131737257505">
        <ele>-120</ele>
        <time>2026-06-10T15:19:10.000Z</time>
      </trkpt>
      <trkpt lat="32.49934127552825" lon="35.49138256515673">
        <ele>-120</ele>
        <time>2026-06-10T15:19:11.000Z</time>
      </trkpt>
      <trkpt lat="32.49915985388666" lon="35.491511087674894">
        <ele>-120</ele>
        <time>2026-06-10T15:19:12.000Z</time>
      </trkpt>
      <trkpt lat="32.49902145934898" lon="35.491615582070104">
        <ele>-120</ele>
        <time>2026-06-10T15:19:13.000Z</time>
      </trkpt>
      <trkpt lat="32.498906347876186" lon="35.491715606116855">
        <ele>-120</ele>
        <time>2026-06-10T15:19:14.000Z</time>
      </trkpt>
      <trkpt lat="32.49880297106809" lon="35.49180538561505">
        <ele>-120</ele>
        <time>2026-06-10T15:19:15.000Z</time>
      </trkpt>
      <trkpt lat="32.49874094498323" lon="35.49185884353203">
        <ele>-119</ele>
        <time>2026-06-10T15:19:16.000Z</time>
      </trkpt>
      <trkpt lat="32.498349789493155" lon="35.49221907911194">
        <ele>-120</ele>
        <time>2026-06-10T15:19:17.000Z</time>
      </trkpt>
      <trkpt lat="32.49832799654442" lon="35.492242920970384">
        <ele>-120</ele>
        <time>2026-06-10T15:19:18.000Z</time>
      </trkpt>
      <trkpt lat="32.498143780935045" lon="35.49244259653484">
        <ele>-120</ele>
        <time>2026-06-10T15:19:19.000Z</time>
      </trkpt>
      <trkpt lat="32.49808212737923" lon="35.49251542596181">
        <ele>-120</ele>
        <time>2026-06-10T15:19:20.000Z</time>
      </trkpt>
      <trkpt lat="32.49795192848038" lon="35.49267002551265">
        <ele>-120</ele>
        <time>2026-06-10T15:19:21.000Z</time>
      </trkpt>
      <trkpt lat="32.497936095996266" lon="35.49269405363561">
        <ele>-120</ele>
        <time>2026-06-10T15:19:22.000Z</time>
      </trkpt>
      <trkpt lat="32.4978105537104" lon="35.49288441597412">
        <ele>-120</ele>
        <time>2026-06-10T15:19:23.000Z</time>
      </trkpt>
      <trkpt lat="32.49771667639278" lon="35.493060435944656">
        <ele>-120</ele>
        <time>2026-06-10T15:19:24.000Z</time>
      </trkpt>
      <trkpt lat="32.49768184492771" lon="35.493142951126615">
        <ele>-120</ele>
        <time>2026-06-10T15:19:25.000Z</time>
      </trkpt>
      <trkpt lat="32.49766731629522" lon="35.49317722379812">
        <ele>-120</ele>
        <time>2026-06-10T15:19:26.000Z</time>
      </trkpt>
      <trkpt lat="32.497600633597386" lon="35.49333517611031">
        <ele>-120</ele>
        <time>2026-06-10T15:19:27.000Z</time>
      </trkpt>
      <trkpt lat="32.49755816528704" lon="35.49345140517022">
        <ele>-120</ele>
        <time>2026-06-10T15:19:28.000Z</time>
      </trkpt>
      <trkpt lat="32.49750098207968" lon="35.493607681101736">
        <ele>-120</ele>
        <time>2026-06-10T15:19:29.000Z</time>
      </trkpt>
      <trkpt lat="32.497481238040656" lon="35.49366132528323">
        <ele>-120</ele>
        <time>2026-06-10T15:19:30.000Z</time>
      </trkpt>
      <trkpt lat="32.49737618485189" lon="35.4939528292556">
        <ele>-120</ele>
        <time>2026-06-10T15:19:31.000Z</time>
      </trkpt>
      <trkpt lat="32.4972875229408" lon="35.4942583030669">
        <ele>-120</ele>
        <time>2026-06-10T15:19:32.000Z</time>
      </trkpt>
      <trkpt lat="32.49708039679558" lon="35.49497206870404">
        <ele>-118</ele>
        <time>2026-06-10T15:19:33.000Z</time>
      </trkpt>
      <trkpt lat="32.49692728736089" lon="35.49549938355757">
        <ele>-119</ele>
        <time>2026-06-10T15:19:34.000Z</time>
      </trkpt>
      <trkpt lat="32.496808078068675" lon="35.49591009682216">
        <ele>-119</ele>
        <time>2026-06-10T15:19:35.000Z</time>
      </trkpt>
      <trkpt lat="32.49677306033909" lon="35.49602613961755">
        <ele>-119</ele>
        <time>2026-06-10T15:19:36.000Z</time>
      </trkpt>
      <trkpt lat="32.49674996353872" lon="35.49610325312845">
        <ele>-119</ele>
        <time>2026-06-10T15:19:37.000Z</time>
      </trkpt>
      <trkpt lat="32.49669929958953" lon="35.496300693518684">
        <ele>-120</ele>
        <time>2026-06-10T15:19:38.000Z</time>
      </trkpt>
      <trkpt lat="32.49664975322745" lon="35.496532779109465">
        <ele>-120</ele>
        <time>2026-06-10T15:19:39.000Z</time>
      </trkpt>
      <trkpt lat="32.49662330366574" lon="35.496524769735146">
        <ele>-120</ele>
        <time>2026-06-10T15:19:40.000Z</time>
      </trkpt>
      <trkpt lat="32.496596295310475" lon="35.49652719117389">
        <ele>-120</ele>
        <time>2026-06-10T15:19:41.000Z</time>
      </trkpt>
      <trkpt lat="32.4965711496004" lon="35.496539112103115">
        <ele>-120</ele>
        <time>2026-06-10T15:19:42.000Z</time>
      </trkpt>
      <trkpt lat="32.4965292400836" lon="35.496618274523726">
        <ele>-120</ele>
        <time>2026-06-10T15:19:43.000Z</time>
      </trkpt>
      <trkpt lat="32.49653128899331" lon="35.496650498285526">
        <ele>-120</ele>
        <time>2026-06-10T15:19:44.000Z</time>
      </trkpt>
      <trkpt lat="32.49654134727734" lon="35.49668030060858">
        <ele>-120</ele>
        <time>2026-06-10T15:19:45.000Z</time>
      </trkpt>
      <trkpt lat="32.49654768027099" lon="35.49668868251194">
        <ele>-120</ele>
        <time>2026-06-10T15:19:46.000Z</time>
      </trkpt>
      <trkpt lat="32.496543768716094" lon="35.496759649293715">
        <ele>-120</ele>
        <time>2026-06-10T15:19:47.000Z</time>
      </trkpt>
      <trkpt lat="32.496449705133955" lon="35.49712882557054">
        <ele>-117</ele>
        <time>2026-06-10T15:19:48.000Z</time>
      </trkpt>
      <trkpt lat="32.49643312759176" lon="35.49720482149433">
        <ele>-117</ele>
        <time>2026-06-10T15:19:49.000Z</time>
      </trkpt>
      <trkpt lat="32.49640611923649" lon="35.49732831487049">
        <ele>-117</ele>
        <time>2026-06-10T15:19:50.000Z</time>
      </trkpt>
      <trkpt lat="32.4963789246167" lon="35.49750228593131">
        <ele>-117</ele>
        <time>2026-06-10T15:19:51.000Z</time>
      </trkpt>
      <trkpt lat="32.49635545528729" lon="35.49782415102029">
        <ele>-117</ele>
        <time>2026-06-10T15:19:52.000Z</time>
      </trkpt>
      <trkpt lat="32.496354896493735" lon="35.49794652680933">
        <ele>-121</ele>
        <time>2026-06-10T15:19:53.000Z</time>
      </trkpt>
      <trkpt lat="32.49635172999692" lon="35.49856436621914">
        <ele>-121</ele>
        <time>2026-06-10T15:19:54.000Z</time>
      </trkpt>
      <trkpt lat="32.496344651945186" lon="35.49866271388522">
        <ele>-121</ele>
        <time>2026-06-10T15:19:55.000Z</time>
      </trkpt>
      <trkpt lat="32.49633291728048" lon="35.49872865152498">
        <ele>-121</ele>
        <time>2026-06-10T15:19:56.000Z</time>
      </trkpt>
      <trkpt lat="32.49631894744155" lon="35.498757336260915">
        <ele>-120</ele>
        <time>2026-06-10T15:19:57.000Z</time>
      </trkpt>
      <trkpt lat="32.49631317324146" lon="35.49879142266791">
        <ele>-120</ele>
        <time>2026-06-10T15:19:58.000Z</time>
      </trkpt>
      <trkpt lat="32.49631782985444" lon="35.49882755798461">
        <ele>-120</ele>
        <time>2026-06-10T15:19:59.000Z</time>
      </trkpt>
      <trkpt lat="32.49632304526097" lon="35.49884115529451">
        <ele>-120</ele>
        <time>2026-06-10T15:20:00.000Z</time>
      </trkpt>
      <trkpt lat="32.4963340348676" lon="35.49886052680449">
        <ele>-120</ele>
        <time>2026-06-10T15:20:01.000Z</time>
      </trkpt>
      <trkpt lat="32.496345769532304" lon="35.49894211066385">
        <ele>-120</ele>
        <time>2026-06-10T15:20:02.000Z</time>
      </trkpt>
      <trkpt lat="32.49631559468021" lon="35.49939883126465">
        <ele>-120</ele>
        <time>2026-06-10T15:20:03.000Z</time>
      </trkpt>
      <trkpt lat="32.49628486103456" lon="35.49960949643574">
        <ele>-119</ele>
        <time>2026-06-10T15:20:04.000Z</time>
      </trkpt>
      <trkpt lat="32.496188748542714" lon="35.50004703179107">
        <ele>-118</ele>
        <time>2026-06-10T15:20:05.000Z</time>
      </trkpt>
      <trkpt lat="32.49605854964387" lon="35.500514741998494">
        <ele>-118</ele>
        <time>2026-06-10T15:20:06.000Z</time>
      </trkpt>
      <trkpt lat="32.49602241432717" lon="35.50062650070995">
        <ele>-118</ele>
        <time>2026-06-10T15:20:07.000Z</time>
      </trkpt>
      <trkpt lat="32.49598627901047" lon="35.500684056446346">
        <ele>-118</ele>
        <time>2026-06-10T15:20:08.000Z</time>
      </trkpt>
      <trkpt lat="32.49594772225502" lon="35.50073025004708">
        <ele>-118</ele>
        <time>2026-06-10T15:20:09.000Z</time>
      </trkpt>
      <trkpt lat="32.495923880396575" lon="35.500755582021675">
        <ele>-118</ele>
        <time>2026-06-10T15:20:10.000Z</time>
      </trkpt>
      <trkpt lat="32.49590860670601" lon="35.50078892337059">
        <ele>-118</ele>
        <time>2026-06-10T15:20:11.000Z</time>
      </trkpt>
      <trkpt lat="32.49590413635755" lon="35.50082673506797">
        <ele>-118</ele>
        <time>2026-06-10T15:20:12.000Z</time>
      </trkpt>
      <trkpt lat="32.49591195946735" lon="35.50086771326217">
        <ele>-118</ele>
        <time>2026-06-10T15:20:13.000Z</time>
      </trkpt>
      <trkpt lat="32.49592984086118" lon="35.50089937823041">
        <ele>-118</ele>
        <time>2026-06-10T15:20:14.000Z</time>
      </trkpt>
      <trkpt lat="32.49592648809984" lon="35.500954698792576">
        <ele>-118</ele>
        <time>2026-06-10T15:20:15.000Z</time>
      </trkpt>
      <trkpt lat="32.49591382211254" lon="35.50110277908525">
        <ele>-118</ele>
        <time>2026-06-10T15:20:16.000Z</time>
      </trkpt>
      <trkpt lat="32.49573649829037" lon="35.50159842897054">
        <ele>-118</ele>
        <time>2026-06-10T15:20:17.000Z</time>
      </trkpt>
      <trkpt lat="32.49549305056392" lon="35.50211028386899">
        <ele>-118</ele>
        <time>2026-06-10T15:20:18.000Z</time>
      </trkpt>
      <trkpt lat="32.49531274650945" lon="35.50248933216533">
        <ele>-118</ele>
        <time>2026-06-10T15:20:19.000Z</time>
      </trkpt>
      <trkpt lat="32.49495381478117" lon="35.50324463479023">
        <ele>-120</ele>
        <time>2026-06-10T15:20:20.000Z</time>
      </trkpt>
      <trkpt lat="32.49465616407967" lon="35.503870669838875">
        <ele>-123</ele>
        <time>2026-06-10T15:20:21.000Z</time>
      </trkpt>
      <trkpt lat="32.4945637768782" lon="35.5040124171379">
        <ele>-122</ele>
        <time>2026-06-10T15:20:22.000Z</time>
      </trkpt>
      <trkpt lat="32.49451069149026" lon="35.50404799366105">
        <ele>-122</ele>
        <time>2026-06-10T15:20:23.000Z</time>
      </trkpt>
      <trkpt lat="32.494473997380005" lon="35.50406550252584">
        <ele>-122</ele>
        <time>2026-06-10T15:20:24.000Z</time>
      </trkpt>
      <trkpt lat="32.494433577979365" lon="35.504104990603885">
        <ele>-122</ele>
        <time>2026-06-10T15:20:25.000Z</time>
      </trkpt>
      <trkpt lat="32.49441122623707" lon="35.50414615506261">
        <ele>-122</ele>
        <time>2026-06-10T15:20:26.000Z</time>
      </trkpt>
      <trkpt lat="32.494398373985256" lon="35.50424040490926">
        <ele>-122</ele>
        <time>2026-06-10T15:20:27.000Z</time>
      </trkpt>
      <trkpt lat="32.494408059740245" lon="35.50428659850999">
        <ele>-122</ele>
        <time>2026-06-10T15:20:28.000Z</time>
      </trkpt>
      <trkpt lat="32.494426686192156" lon="35.50432645911708">
        <ele>-122</ele>
        <time>2026-06-10T15:20:29.000Z</time>
      </trkpt>
      <trkpt lat="32.49445332201839" lon="35.504359614201476">
        <ele>-122</ele>
        <time>2026-06-10T15:20:30.000Z</time>
      </trkpt>
      <trkpt lat="32.494537513581015" lon="35.504398729750484">
        <ele>-122</ele>
        <time>2026-06-10T15:20:31.000Z</time>
      </trkpt>
      <trkpt lat="32.494590040175396" lon="35.5043920242278">
        <ele>-123</ele>
        <time>2026-06-10T15:20:32.000Z</time>
      </trkpt>
      <trkpt lat="32.49462598922758" lon="35.50437339777589">
        <ele>-123</ele>
        <time>2026-06-10T15:20:33.000Z</time>
      </trkpt>
      <trkpt lat="32.49475004139729" lon="35.504364270814456">
        <ele>-123</ele>
        <time>2026-06-10T15:20:34.000Z</time>
      </trkpt>
      <trkpt lat="32.49488657328978" lon="35.50438047582762">
        <ele>-123</ele>
        <time>2026-06-10T15:20:35.000Z</time>
      </trkpt>
      <trkpt lat="32.495452817427804" lon="35.50457791621785">
        <ele>-123</ele>
        <time>2026-06-10T15:20:36.000Z</time>
      </trkpt>
      <trkpt lat="32.495509441841605" lon="35.50459654266975">
        <ele>-124</ele>
        <time>2026-06-10T15:20:37.000Z</time>
      </trkpt>
      <trkpt lat="32.49559605484298" lon="35.504625041141175">
        <ele>-124</ele>
        <time>2026-06-10T15:20:38.000Z</time>
      </trkpt>
      <trkpt lat="32.49572439109663" lon="35.50465931381269">
        <ele>-124</ele>
        <time>2026-06-10T15:20:39.000Z</time>
      </trkpt>
      <trkpt lat="32.49574879174863" lon="35.504665460541815">
        <ele>-124</ele>
        <time>2026-06-10T15:20:40.000Z</time>
      </trkpt>
      <trkpt lat="32.49588737255083" lon="35.504700105742366">
        <ele>-124</ele>
        <time>2026-06-10T15:20:41.000Z</time>
      </trkpt>
      <trkpt lat="32.496341671712884" lon="35.50477312143385">
        <ele>-123</ele>
        <time>2026-06-10T15:20:42.000Z</time>
      </trkpt>
      <trkpt lat="32.49793106685425" lon="35.50493424024286">
        <ele>-124</ele>
        <time>2026-06-10T15:20:43.000Z</time>
      </trkpt>
      <trkpt lat="32.49808641146316" lon="35.504950072726984">
        <ele>-124</ele>
        <time>2026-06-10T15:20:44.000Z</time>
      </trkpt>
      <trkpt lat="32.49835239719642" lon="35.50497708108225">
        <ele>-124</ele>
        <time>2026-06-10T15:20:45.000Z</time>
      </trkpt>
      <trkpt lat="32.4984136782232" lon="35.50498564925012">
        <ele>-124</ele>
        <time>2026-06-10T15:20:46.000Z</time>
      </trkpt>
      <trkpt lat="32.498469930107966" lon="35.505002599321365">
        <ele>-124</ele>
        <time>2026-06-10T15:20:47.000Z</time>
      </trkpt>
      <trkpt lat="32.49851742756033" lon="35.50503817584451">
        <ele>-124</ele>
        <time>2026-06-10T15:20:48.000Z</time>
      </trkpt>
      <trkpt lat="32.498526927050804" lon="35.505057361089975">
        <ele>-124</ele>
        <time>2026-06-10T15:20:49.000Z</time>
      </trkpt>
      <trkpt lat="32.49856045466424" lon="35.505127210284634">
        <ele>-124</ele>
        <time>2026-06-10T15:20:50.000Z</time>
      </trkpt>
      <trkpt lat="32.49856753271597" lon="35.505200039711596">
        <ele>-124</ele>
        <time>2026-06-10T15:20:51.000Z</time>
      </trkpt>
      <trkpt lat="32.498563993690105" lon="35.5053289347588">
        <ele>-124</ele>
        <time>2026-06-10T15:20:52.000Z</time>
      </trkpt>
      <trkpt lat="32.498455401475475" lon="35.506096903370995">
        <ele>-131</ele>
        <time>2026-06-10T15:20:53.000Z</time>
      </trkpt>
      <trkpt lat="32.49840324741013" lon="35.5063604676655">
        <ele>-137</ele>
        <time>2026-06-10T15:20:54.000Z</time>
      </trkpt>
      <trkpt lat="32.498382758313035" lon="35.506464589531674">
        <ele>-137</ele>
        <time>2026-06-10T15:20:55.000Z</time>
      </trkpt>
      <trkpt lat="32.4983609653643" lon="35.50656293719775">
        <ele>-137</ele>
        <time>2026-06-10T15:20:56.000Z</time>
      </trkpt>
      <trkpt lat="32.49832483004759" lon="35.506726663710026">
        <ele>-137</ele>
        <time>2026-06-10T15:20:57.000Z</time>
      </trkpt>
      <trkpt lat="32.49827789138879" lon="35.50694049537794">
        <ele>-137</ele>
        <time>2026-06-10T15:20:58.000Z</time>
      </trkpt>
      <trkpt lat="32.49819425861972" lon="35.50721132398869">
        <ele>-143</ele>
        <time>2026-06-10T15:20:59.000Z</time>
      </trkpt>
      <trkpt lat="32.49804263930118" lon="35.50754585506497">
        <ele>-143</ele>
        <time>2026-06-10T15:21:00.000Z</time>
      </trkpt>
      <trkpt lat="32.497915793163685" lon="35.50770492496427">
        <ele>-145</ele>
        <time>2026-06-10T15:21:01.000Z</time>
      </trkpt>
      <trkpt lat="32.497803848187715" lon="35.50780327263035">
        <ele>-145</ele>
        <time>2026-06-10T15:21:02.000Z</time>
      </trkpt>
      <trkpt lat="32.49767718831473" lon="35.50788653287038">
        <ele>-145</ele>
        <time>2026-06-10T15:21:03.000Z</time>
      </trkpt>
      <trkpt lat="32.497562449370974" lon="35.50793272647111">
        <ele>-149</ele>
        <time>2026-06-10T15:21:04.000Z</time>
      </trkpt>
      <trkpt lat="32.49749986449256" lon="35.50795805844571">
        <ele>-149</ele>
        <time>2026-06-10T15:21:05.000Z</time>
      </trkpt>
      <trkpt lat="32.497025635026965" lon="35.50806963089264">
        <ele>-149</ele>
        <time>2026-06-10T15:21:06.000Z</time>
      </trkpt>
      <trkpt lat="32.49689506359909" lon="35.50812532398385">
        <ele>-149</ele>
        <time>2026-06-10T15:21:07.000Z</time>
      </trkpt>
      <trkpt lat="32.496562395168" lon="35.50837417338135">
        <ele>-149</ele>
        <time>2026-06-10T15:21:08.000Z</time>
      </trkpt>
      <trkpt lat="32.49642847097878" lon="35.50849878434462">
        <ele>-149</ele>
        <time>2026-06-10T15:21:09.000Z</time>
      </trkpt>
      <trkpt lat="32.49630162484128" lon="35.5086576679794">
        <ele>-149</ele>
        <time>2026-06-10T15:21:10.000Z</time>
      </trkpt>
      <trkpt lat="32.49625673509218" lon="35.508737575458085">
        <ele>-149</ele>
        <time>2026-06-10T15:21:11.000Z</time>
      </trkpt>
      <trkpt lat="32.49609673387028" lon="35.509021628849695">
        <ele>-156</ele>
        <time>2026-06-10T15:21:12.000Z</time>
      </trkpt>
      <trkpt lat="32.49598292624912" lon="35.5092237258529">
        <ele>-156</ele>
        <time>2026-06-10T15:21:13.000Z</time>
      </trkpt>
      <trkpt lat="32.4958890489315" lon="35.509374227584324">
        <ele>-156</ele>
        <time>2026-06-10T15:21:14.000Z</time>
      </trkpt>
      <trkpt lat="32.49565342431486" lon="35.50960594064607">
        <ele>-154</ele>
        <time>2026-06-10T15:21:15.000Z</time>
      </trkpt>
      <trkpt lat="32.49511456106114" lon="35.50986056424366">
        <ele>-159</ele>
        <time>2026-06-10T15:21:16.000Z</time>
      </trkpt>
      <trkpt lat="32.494951207077904" lon="35.50996654875502">
        <ele>-159</ele>
        <time>2026-06-10T15:21:17.000Z</time>
      </trkpt>
      <trkpt lat="32.49482473346944" lon="35.51009078718925">
        <ele>-159</ele>
        <time>2026-06-10T15:21:18.000Z</time>
      </trkpt>
      <trkpt lat="32.49462561669854" lon="35.510391418123056">
        <ele>-159</ele>
        <time>2026-06-10T15:21:19.000Z</time>
      </trkpt>
      <trkpt lat="32.49454589548437" lon="35.51057153591301">
        <ele>-173</ele>
        <time>2026-06-10T15:21:20.000Z</time>
      </trkpt>
      <trkpt lat="32.494455557192616" lon="35.51086751023384">
        <ele>-173</ele>
        <time>2026-06-10T15:21:21.000Z</time>
      </trkpt>
      <trkpt lat="32.49430673184187" lon="35.51143096040408">
        <ele>-172</ele>
        <time>2026-06-10T15:21:22.000Z</time>
      </trkpt>
      <trkpt lat="32.49445908541413" lon="35.51144791403467">
        <ele>-172</ele>
        <time>2026-06-10T15:21:23.000Z</time>
      </trkpt>
      <trkpt lat="32.49445908541413" lon="35.51144791403467">
        <ele>-172</ele>
        <time>2026-06-10T15:21:24.000Z</time>
      </trkpt>
      <trkpt lat="32.49430673184187" lon="35.51143096040408">
        <ele>-172</ele>
        <time>2026-06-10T15:21:25.000Z</time>
      </trkpt>
      <trkpt lat="32.49424582334412" lon="35.511661742143225">
        <ele>-172</ele>
        <time>2026-06-10T15:21:26.000Z</time>
      </trkpt>
      <trkpt lat="32.494174297768794" lon="35.51192679655388">
        <ele>-172</ele>
        <time>2026-06-10T15:21:27.000Z</time>
      </trkpt>
      <trkpt lat="32.494100537019236" lon="35.512146588686406">
        <ele>-176</ele>
        <time>2026-06-10T15:21:28.000Z</time>
      </trkpt>
      <trkpt lat="32.49402863891487" lon="35.51233285320549">
        <ele>-176</ele>
        <time>2026-06-10T15:21:29.000Z</time>
      </trkpt>
      <trkpt lat="32.493746075639415" lon="35.51291027321466">
        <ele>-183</ele>
        <time>2026-06-10T15:21:30.000Z</time>
      </trkpt>
      <trkpt lat="32.49369205892888" lon="35.513100635553165">
        <ele>-183</ele>
        <time>2026-06-10T15:21:31.000Z</time>
      </trkpt>
      <trkpt lat="32.493630032844024" lon="35.5134727920623">
        <ele>-183</ele>
        <time>2026-06-10T15:21:32.000Z</time>
      </trkpt>
      <trkpt lat="32.493615690476055" lon="35.51375144378285">
        <ele>-186</ele>
        <time>2026-06-10T15:21:33.000Z</time>
      </trkpt>
      <trkpt lat="32.4936268663472" lon="35.51514209468235">
        <ele>-191</ele>
        <time>2026-06-10T15:21:34.000Z</time>
      </trkpt>
      <trkpt lat="32.49373881132317" lon="35.51600896975418">
        <ele>-197</ele>
        <time>2026-06-10T15:21:35.000Z</time>
      </trkpt>
      <trkpt lat="32.493727635452025" lon="35.51630941442347">
        <ele>-198</ele>
        <time>2026-06-10T15:21:36.000Z</time>
      </trkpt>
      <trkpt lat="32.49370994032271" lon="35.51641726158002">
        <ele>-198</ele>
        <time>2026-06-10T15:21:37.000Z</time>
      </trkpt>
      <trkpt lat="32.49364586532815" lon="35.516410369792816">
        <ele>-198</ele>
        <time>2026-06-10T15:21:38.000Z</time>
      </trkpt>
      <trkpt lat="32.49355124295245" lon="35.51645339689672">
        <ele>-198</ele>
        <time>2026-06-10T15:21:39.000Z</time>
      </trkpt>
      <trkpt lat="32.493530195061794" lon="35.51647984645843">
        <ele>-198</ele>
        <time>2026-06-10T15:21:40.000Z</time>
      </trkpt>
      <trkpt lat="32.493509333435654" lon="35.516506109755625">
        <ele>-198</ele>
        <time>2026-06-10T15:21:41.000Z</time>
      </trkpt>
      <trkpt lat="32.49347934484808" lon="35.51660557500882">
        <ele>-198</ele>
        <time>2026-06-10T15:21:42.000Z</time>
      </trkpt>
      <trkpt lat="32.49348325640298" lon="35.51667654179059">
        <ele>-198</ele>
        <time>2026-06-10T15:21:43.000Z</time>
      </trkpt>
      <trkpt lat="32.4935078433195" lon="35.51674490086909">
        <ele>-198</ele>
        <time>2026-06-10T15:21:44.000Z</time>
      </trkpt>
      <trkpt lat="32.493368517459224" lon="35.5167722817534">
        <ele>-198</ele>
        <time>2026-06-10T15:21:45.000Z</time>
      </trkpt>
      <trkpt lat="32.493228446540876" lon="35.51674732230784">
        <ele>-198</ele>
        <time>2026-06-10T15:21:46.000Z</time>
      </trkpt>
      <trkpt lat="32.49303659408621" lon="35.516717333720266">
        <ele>-198</ele>
        <time>2026-06-10T15:21:47.000Z</time>
      </trkpt>
      <trkpt lat="32.49218238500168" lon="35.516519520801">
        <ele>-199</ele>
        <time>2026-06-10T15:21:48.000Z</time>
      </trkpt>
      <trkpt lat="32.491929065255725" lon="35.51648953221343">
        <ele>-200</ele>
        <time>2026-06-10T15:21:49.000Z</time>
      </trkpt>
      <trkpt lat="32.491635884902685" lon="35.516481336574586">
        <ele>-200</ele>
        <time>2026-06-10T15:21:50.000Z</time>
      </trkpt>
      <trkpt lat="32.491150479565945" lon="35.5165156092461">
        <ele>-200</ele>
        <time>2026-06-10T15:21:51.000Z</time>
      </trkpt>
      <trkpt lat="32.49074516797241" lon="35.51650275699428">
        <ele>-200</ele>
        <time>2026-06-10T15:21:52.000Z</time>
      </trkpt>
      <trkpt lat="32.49053506159488" lon="35.51645116172249">
        <ele>-200</ele>
        <time>2026-06-10T15:21:53.000Z</time>
      </trkpt>
      <trkpt lat="32.4903361310885" lon="35.51637404821159">
        <ele>-203</ele>
        <time>2026-06-10T15:21:54.000Z</time>
      </trkpt>
      <trkpt lat="32.49018805079582" lon="35.5162667598486">
        <ele>-203</ele>
        <time>2026-06-10T15:21:55.000Z</time>
      </trkpt>
      <trkpt lat="32.488826643425824" lon="35.514893431549375">
        <ele>-200</ele>
        <time>2026-06-10T15:21:56.000Z</time>
      </trkpt>
      <trkpt lat="32.488576676441205" lon="35.51467959988146">
        <ele>-203</ele>
        <time>2026-06-10T15:21:57.000Z</time>
      </trkpt>
      <trkpt lat="32.48849788654963" lon="35.51477701622494">
        <ele>-203</ele>
        <time>2026-06-10T15:21:58.000Z</time>
      </trkpt>
      <trkpt lat="32.48893709828564" lon="35.51534270156941">
        <ele>-200</ele>
        <time>2026-06-10T15:21:59.000Z</time>
      </trkpt>
      <trkpt lat="32.48902762284192" lon="35.51551425119149">
        <ele>-204</ele>
        <time>2026-06-10T15:22:00.000Z</time>
      </trkpt>
      <trkpt lat="32.4890382399195" lon="35.515724543833535">
        <ele>-204</ele>
        <time>2026-06-10T15:22:01.000Z</time>
      </trkpt>
      <trkpt lat="32.48895851870534" lon="35.51598643174737">
        <ele>-204</ele>
        <time>2026-06-10T15:22:02.000Z</time>
      </trkpt>
      <trkpt lat="32.48884266217446" lon="35.516218144809116">
        <ele>-204</ele>
        <time>2026-06-10T15:22:03.000Z</time>
      </trkpt>
      <trkpt lat="32.488733697430796" lon="35.516358960785546">
        <ele>-215</ele>
        <time>2026-06-10T15:22:04.000Z</time>
      </trkpt>
      <trkpt lat="32.487843166765046" lon="35.516481895368145">
        <ele>-213</ele>
        <time>2026-06-10T15:22:05.000Z</time>
      </trkpt>
      <trkpt lat="32.48722923891014" lon="35.51737223976937">
        <ele>-220</ele>
        <time>2026-06-10T15:22:06.000Z</time>
      </trkpt>
      <trkpt lat="32.48673098132158" lon="35.51791948492645">
        <ele>-217</ele>
        <time>2026-06-10T15:22:07.000Z</time>
      </trkpt>
      <trkpt lat="32.486895452891936" lon="35.51928554890943">
        <ele>-223</ele>
        <time>2026-06-10T15:22:08.000Z</time>
      </trkpt>
      <trkpt lat="32.486552539912296" lon="35.51957835673343">
        <ele>-221</ele>
        <time>2026-06-10T15:22:09.000Z</time>
      </trkpt>
      <trkpt lat="32.48623700781696" lon="35.520407792636924">
        <ele>-222</ele>
        <time>2026-06-10T15:22:10.000Z</time>
      </trkpt>
      <trkpt lat="32.485427502217014" lon="35.52068402291873">
        <ele>-221</ele>
        <time>2026-06-10T15:22:11.000Z</time>
      </trkpt>
      <trkpt lat="32.484975065700155" lon="35.5210418370599">
        <ele>-221</ele>
        <time>2026-06-10T15:22:12.000Z</time>
      </trkpt>
      <trkpt lat="32.48420691082344" lon="35.521513272557705">
        <ele>-225</ele>
        <time>2026-06-10T15:22:13.000Z</time>
      </trkpt>
      <trkpt lat="32.48390516230252" lon="35.522033881888554">
        <ele>-225</ele>
        <time>2026-06-10T15:22:14.000Z</time>
      </trkpt>
      <trkpt lat="32.4836443919758" lon="35.522781920197204">
        <ele>-228</ele>
        <time>2026-06-10T15:22:15.000Z</time>
      </trkpt>
      <trkpt lat="32.48357233137052" lon="35.52334262137213">
        <ele>-227</ele>
        <time>2026-06-10T15:22:16.000Z</time>
      </trkpt>
      <trkpt lat="32.48357233137052" lon="35.52334262137213">
        <ele>-227</ele>
        <time>2026-06-10T15:22:17.000Z</time>
      </trkpt>
      <trkpt lat="32.483521084864165" lon="35.52374136873502">
        <ele>-226</ele>
        <time>2026-06-10T15:22:18.000Z</time>
      </trkpt>
      <trkpt lat="32.48283507264037" lon="35.52338355459385">
        <ele>-225</ele>
        <time>2026-06-10T15:22:19.000Z</time>
      </trkpt>
      <trkpt lat="32.48227274005725" lon="35.523155939351525">
        <ele>-225</ele>
        <time>2026-06-10T15:22:20.000Z</time>
      </trkpt>
      <trkpt lat="32.481394689114275" lon="35.52232668971256">
        <ele>-221</ele>
        <time>2026-06-10T15:22:21.000Z</time>
      </trkpt>
      <trkpt lat="32.47977605044341" lon="35.5215298500999">
        <ele>-222</ele>
        <time>2026-06-10T15:22:22.000Z</time>
      </trkpt>
      <trkpt lat="32.477924022330136" lon="35.52055419654893">
        <ele>-223</ele>
        <time>2026-06-10T15:22:23.000Z</time>
      </trkpt>
      <trkpt lat="32.477814312528395" lon="35.52076542051357">
        <ele>-223</ele>
        <time>2026-06-10T15:22:24.000Z</time>
      </trkpt>
      <trkpt lat="32.47799014623441" lon="35.52090400131577">
        <ele>-220</ele>
        <time>2026-06-10T15:22:25.000Z</time>
      </trkpt>
      <trkpt lat="32.47785976107105" lon="35.52298960513598">
        <ele>-233</ele>
        <time>2026-06-10T15:22:26.000Z</time>
      </trkpt>
      <trkpt lat="32.478223535676825" lon="35.52405485192064">
        <ele>-232</ele>
        <time>2026-06-10T15:22:27.000Z</time>
      </trkpt>
      <trkpt lat="32.47829636510379" lon="35.52517635059006">
        <ele>-233</ele>
        <time>2026-06-10T15:22:28.000Z</time>
      </trkpt>
      <trkpt lat="32.47827047433564" lon="35.5254782853755">
        <ele>-231</ele>
        <time>2026-06-10T15:22:29.000Z</time>
      </trkpt>
      <trkpt lat="32.47797897036327" lon="35.52596927864781">
        <ele>-231</ele>
        <time>2026-06-10T15:22:30.000Z</time>
      </trkpt>
      <trkpt lat="32.47775936449526" lon="35.526424695396976">
        <ele>-231</ele>
        <time>2026-06-10T15:22:31.000Z</time>
      </trkpt>
      <trkpt lat="32.47761314684778" lon="35.526855338965106">
        <ele>-231</ele>
        <time>2026-06-10T15:22:32.000Z</time>
      </trkpt>
      <trkpt lat="32.47748499685865" lon="35.52710754112395">
        <ele>-233</ele>
        <time>2026-06-10T15:22:33.000Z</time>
      </trkpt>
      <trkpt lat="32.477289605378125" lon="35.52724519060355">
        <ele>-233</ele>
        <time>2026-06-10T15:22:34.000Z</time>
      </trkpt>
      <trkpt lat="32.47692210548197" lon="35.52765143351968">
        <ele>-233</ele>
        <time>2026-06-10T15:22:35.000Z</time>
      </trkpt>
      <trkpt lat="32.47680904291889" lon="35.5278106896835">
        <ele>-233</ele>
        <time>2026-06-10T15:22:36.000Z</time>
      </trkpt>
      <trkpt lat="32.4766110437351" lon="35.52832608360781">
        <ele>-233</ele>
        <time>2026-06-10T15:22:37.000Z</time>
      </trkpt>
      <trkpt lat="32.47652629337891" lon="35.528598402334715">
        <ele>-233</ele>
        <time>2026-06-10T15:22:38.000Z</time>
      </trkpt>
      <trkpt lat="32.47641304455131" lon="35.528874818881036">
        <ele>-233</ele>
        <time>2026-06-10T15:22:39.000Z</time>
      </trkpt>
      <trkpt lat="32.47630687377543" lon="35.52896273573405">
        <ele>-233</ele>
        <time>2026-06-10T15:22:40.000Z</time>
      </trkpt>
      <trkpt lat="32.476109247120675" lon="35.52908865054895">
        <ele>-235</ele>
        <time>2026-06-10T15:22:41.000Z</time>
      </trkpt>
      <trkpt lat="32.475801724399666" lon="35.52943622014156">
        <ele>-235</ele>
        <time>2026-06-10T15:22:42.000Z</time>
      </trkpt>
      <trkpt lat="32.47540237327075" lon="35.53028689020023">
        <ele>-234</ele>
        <time>2026-06-10T15:22:43.000Z</time>
      </trkpt>
      <trkpt lat="32.47518313993178" lon="35.53081047976338">
        <ele>-235</ele>
        <time>2026-06-10T15:22:44.000Z</time>
      </trkpt>
      <trkpt lat="32.47502407003248" lon="35.5311453833687">
        <ele>-235</ele>
        <time>2026-06-10T15:22:45.000Z</time>
      </trkpt>
      <trkpt lat="32.47493429815328" lon="35.53137762025217">
        <ele>-235</ele>
        <time>2026-06-10T15:22:46.000Z</time>
      </trkpt>
      <trkpt lat="32.47493429815328" lon="35.53137762025217">
        <ele>-235</ele>
        <time>2026-06-10T15:22:47.000Z</time>
      </trkpt>
      <trkpt lat="32.47463533598115" lon="35.53215102550725">
        <ele>-235</ele>
        <time>2026-06-10T15:22:48.000Z</time>
      </trkpt>
      <trkpt lat="32.47443044501015" lon="35.53236448464612">
        <ele>-236</ele>
        <time>2026-06-10T15:22:49.000Z</time>
      </trkpt>
      <trkpt lat="32.474168743360835" lon="35.532406580427434">
        <ele>-236</ele>
        <time>2026-06-10T15:22:50.000Z</time>
      </trkpt>
      <trkpt lat="32.47399924264847" lon="35.53231866357443">
        <ele>-236</ele>
        <time>2026-06-10T15:22:51.000Z</time>
      </trkpt>
      <trkpt lat="32.473880592149804" lon="35.53232257512933">
        <ele>-236</ele>
        <time>2026-06-10T15:22:52.000Z</time>
      </trkpt>
      <trkpt lat="32.47377647028364" lon="35.532327045477786">
        <ele>-236</ele>
        <time>2026-06-10T15:22:53.000Z</time>
      </trkpt>
      <trkpt lat="32.47356804028678" lon="35.532343809284505">
        <ele>-237</ele>
        <time>2026-06-10T15:22:54.000Z</time>
      </trkpt>
      <trkpt lat="32.47338065818058" lon="35.53245668558307">
        <ele>-237</ele>
        <time>2026-06-10T15:22:55.000Z</time>
      </trkpt>
      <trkpt lat="32.473161424841614" lon="35.53246525375095">
        <ele>-237</ele>
        <time>2026-06-10T15:22:56.000Z</time>
      </trkpt>
      <trkpt lat="32.47297758176128" lon="35.53251144735168">
        <ele>-237</ele>
        <time>2026-06-10T15:22:57.000Z</time>
      </trkpt>
      <trkpt lat="32.47264193309788" lon="35.53290949462897">
        <ele>-239</ele>
        <time>2026-06-10T15:22:58.000Z</time>
      </trkpt>
      <trkpt lat="32.472323979563804" lon="35.53308514207047">
        <ele>-239</ele>
        <time>2026-06-10T15:22:59.000Z</time>
      </trkpt>
      <trkpt lat="32.47139079432318" lon="35.53381436766269">
        <ele>-235</ele>
        <time>2026-06-10T15:23:00.000Z</time>
      </trkpt>
      <trkpt lat="32.47090091863798" lon="35.534249667843795">
        <ele>-237</ele>
        <time>2026-06-10T15:23:01.000Z</time>
      </trkpt>
      <trkpt lat="32.470694537550834" lon="35.53463951948225">
        <ele>-237</ele>
        <time>2026-06-10T15:23:02.000Z</time>
      </trkpt>
      <trkpt lat="32.470616678981855" lon="35.53506271246961">
        <ele>-237</ele>
        <time>2026-06-10T15:23:03.000Z</time>
      </trkpt>
      <trkpt lat="32.470295186421914" lon="35.535456661927476">
        <ele>-239</ele>
        <time>2026-06-10T15:23:04.000Z</time>
      </trkpt>
      <trkpt lat="32.47014654733568" lon="35.53566993480183">
        <ele>-239</ele>
        <time>2026-06-10T15:23:05.000Z</time>
      </trkpt>
      <trkpt lat="32.46989211000261" lon="35.53582099532681">
        <ele>-239</ele>
        <time>2026-06-10T15:23:06.000Z</time>
      </trkpt>
      <trkpt lat="32.46958104825573" lon="35.535925862251055">
        <ele>-240</ele>
        <time>2026-06-10T15:23:07.000Z</time>
      </trkpt>
      <trkpt lat="32.46937615728474" lon="35.53593834197383">
        <ele>-240</ele>
        <time>2026-06-10T15:23:08.000Z</time>
      </trkpt>
      <trkpt lat="32.4690898687189" lon="35.5359048143604">
        <ele>-240</ele>
        <time>2026-06-10T15:23:09.000Z</time>
      </trkpt>
      <trkpt lat="32.46866201911856" lon="35.53600129938128">
        <ele>-240</ele>
        <time>2026-06-10T15:23:10.000Z</time>
      </trkpt>
      <trkpt lat="32.46779961439519" lon="35.53661690361687">
        <ele>-241</ele>
        <time>2026-06-10T15:23:11.000Z</time>
      </trkpt>
      <trkpt lat="32.46740026326627" lon="35.536948081931804">
        <ele>-241</ele>
        <time>2026-06-10T15:23:12.000Z</time>
      </trkpt>
      <trkpt lat="32.466954904801135" lon="35.53727478989828">
        <ele>-241</ele>
        <time>2026-06-10T15:23:13.000Z</time>
      </trkpt>
      <trkpt lat="32.46684667404666" lon="35.537385368634">
        <ele>-241</ele>
        <time>2026-06-10T15:23:14.000Z</time>
      </trkpt>
      <trkpt lat="32.46684667404666" lon="35.537385368634">
        <ele>-241</ele>
        <time>2026-06-10T15:23:15.000Z</time>
      </trkpt>
      <trkpt lat="32.46677460074666" lon="35.53745900550766">
        <ele>-241</ele>
        <time>2026-06-10T15:23:16.000Z</time>
      </trkpt>
      <trkpt lat="32.46666489094492" lon="35.53765178928491">
        <ele>-241</ele>
        <time>2026-06-10T15:23:17.000Z</time>
      </trkpt>
      <trkpt lat="32.46655536740769" lon="35.538313773385745">
        <ele>-240</ele>
        <time>2026-06-10T15:23:18.000Z</time>
      </trkpt>
      <trkpt lat="32.46647061705151" lon="35.53851065498242">
        <ele>-240</ele>
        <time>2026-06-10T15:23:19.000Z</time>
      </trkpt>
      <trkpt lat="32.46605357079328" lon="35.539009285100015">
        <ele>-239</ele>
        <time>2026-06-10T15:23:20.000Z</time>
      </trkpt>
      <trkpt lat="32.46592225430732" lon="35.539028284080956">
        <ele>-239</ele>
        <time>2026-06-10T15:23:21.000Z</time>
      </trkpt>
      <trkpt lat="32.46604146359954" lon="35.53970908089822">
        <ele>-238</ele>
        <time>2026-06-10T15:23:22.000Z</time>
      </trkpt>
      <trkpt lat="32.466237413873614" lon="35.54034070388244">
        <ele>-238</ele>
        <time>2026-06-10T15:23:23.000Z</time>
      </trkpt>
      <trkpt lat="32.46621822862815" lon="35.540502940278564">
        <ele>-241</ele>
        <time>2026-06-10T15:23:24.000Z</time>
      </trkpt>
      <trkpt lat="32.466090823697094" lon="35.54138248133769">
        <ele>-245</ele>
        <time>2026-06-10T15:23:25.000Z</time>
      </trkpt>
      <trkpt lat="32.465929146094524" lon="35.541620527393086">
        <ele>-245</ele>
        <time>2026-06-10T15:23:26.000Z</time>
      </trkpt>
      <trkpt lat="32.46577603665984" lon="35.5417885379893">
        <ele>-245</ele>
        <time>2026-06-10T15:23:27.000Z</time>
      </trkpt>
      <trkpt lat="32.465325462788165" lon="35.54211487342674">
        <ele>-244</ele>
        <time>2026-06-10T15:23:28.000Z</time>
      </trkpt>
      <trkpt lat="32.465042154454636" lon="35.5422657476872">
        <ele>-244</ele>
        <time>2026-06-10T15:23:29.000Z</time>
      </trkpt>
      <trkpt lat="32.46467055673906" lon="35.54255334010467">
        <ele>-244</ele>
        <time>2026-06-10T15:23:30.000Z</time>
      </trkpt>
      <trkpt lat="32.46431982064962" lon="35.542691734642354">
        <ele>-243</ele>
        <time>2026-06-10T15:23:31.000Z</time>
      </trkpt>
      <trkpt lat="32.46384484612595" lon="35.5429390939237">
        <ele>-242</ele>
        <time>2026-06-10T15:23:32.000Z</time>
      </trkpt>
      <trkpt lat="32.463155853669846" lon="35.543438655363886">
        <ele>-243</ele>
        <time>2026-06-10T15:23:33.000Z</time>
      </trkpt>
      <trkpt lat="32.46245289137482" lon="35.54368936740658">
        <ele>-244</ele>
        <time>2026-06-10T15:23:34.000Z</time>
      </trkpt>
      <trkpt lat="32.46195854534116" lon="35.54393486404273">
        <ele>-242</ele>
        <time>2026-06-10T15:23:35.000Z</time>
      </trkpt>
      <trkpt lat="32.46148189443682" lon="35.54405407333495">
        <ele>-242</ele>
        <time>2026-06-10T15:23:36.000Z</time>
      </trkpt>
      <trkpt lat="32.46123639780066" lon="35.54417328262716">
        <ele>-242</ele>
        <time>2026-06-10T15:23:37.000Z</time>
      </trkpt>
      <trkpt lat="32.460598255558274" lon="35.54477622087545">
        <ele>-243</ele>
        <time>2026-06-10T15:23:38.000Z</time>
      </trkpt>
      <trkpt lat="32.46035983697384" lon="35.545253244308824">
        <ele>-243</ele>
        <time>2026-06-10T15:23:39.000Z</time>
      </trkpt>
      <trkpt lat="32.460500094156714" lon="35.54590535639015">
        <ele>-246</ele>
        <time>2026-06-10T15:23:40.000Z</time>
      </trkpt>
      <trkpt lat="32.46054200367351" lon="35.54628757118331">
        <ele>-247</ele>
        <time>2026-06-10T15:23:41.000Z</time>
      </trkpt>
      <trkpt lat="32.460457998375404" lon="35.547153514932546">
        <ele>-245</ele>
        <time>2026-06-10T15:23:42.000Z</time>
      </trkpt>
      <trkpt lat="32.46046824292395" lon="35.54756366940357">
        <ele>-245</ele>
        <time>2026-06-10T15:23:43.000Z</time>
      </trkpt>
      <trkpt lat="32.46005473569158" lon="35.548475247959985">
        <ele>-245</ele>
        <time>2026-06-10T15:23:44.000Z</time>
      </trkpt>
      <trkpt lat="32.45992155656043" lon="35.54868218784069">
        <ele>-245</ele>
        <time>2026-06-10T15:23:45.000Z</time>
      </trkpt>
      <trkpt lat="32.45985747027354" lon="35.54884265004364">
        <ele>-245.5</ele>
        <time>2026-06-10T15:23:46.000Z</time>
      </trkpt>
      <trkpt lat="32.45985747027354" lon="35.54884265004364">
        <ele>-245.5</ele>
        <time>2026-06-10T15:23:47.000Z</time>
      </trkpt>
      <trkpt lat="32.45992155656043" lon="35.54868218784069">
        <ele>-245</ele>
        <time>2026-06-10T15:23:48.000Z</time>
      </trkpt>
      <trkpt lat="32.46005473569158" lon="35.548475247959985">
        <ele>-245</ele>
        <time>2026-06-10T15:23:49.000Z</time>
      </trkpt>
      <trkpt lat="32.46046824292395" lon="35.54756366940357">
        <ele>-245</ele>
        <time>2026-06-10T15:23:50.000Z</time>
      </trkpt>
      <trkpt lat="32.460457998375404" lon="35.547153514932546">
        <ele>-245</ele>
        <time>2026-06-10T15:23:51.000Z</time>
      </trkpt>
      <trkpt lat="32.46054200367351" lon="35.54628757118331">
        <ele>-247</ele>
        <time>2026-06-10T15:23:52.000Z</time>
      </trkpt>
      <trkpt lat="32.460500094156714" lon="35.54590535639015">
        <ele>-246</ele>
        <time>2026-06-10T15:23:53.000Z</time>
      </trkpt>
      <trkpt lat="32.460608686371344" lon="35.54571592537424">
        <ele>-246</ele>
        <time>2026-06-10T15:23:54.000Z</time>
      </trkpt>
      <trkpt lat="32.460983823112784" lon="35.5457194644001">
        <ele>-246</ele>
        <time>2026-06-10T15:23:55.000Z</time>
      </trkpt>
      <trkpt lat="32.46101194905516" lon="35.54583178190511">
        <ele>-246</ele>
        <time>2026-06-10T15:23:56.000Z</time>
      </trkpt>
      <trkpt lat="32.46151337314055" lon="35.54595434395867">
        <ele>-245</ele>
        <time>2026-06-10T15:23:57.000Z</time>
      </trkpt>
      <trkpt lat="32.461478355410954" lon="35.546252367189204">
        <ele>-245</ele>
        <time>2026-06-10T15:23:58.000Z</time>
      </trkpt>
      <trkpt lat="32.46140813368726" lon="35.54652934252909">
        <ele>-245</ele>
        <time>2026-06-10T15:23:59.000Z</time>
      </trkpt>
      <trkpt lat="32.46134499001529" lon="35.546785269978315">
        <ele>-245</ele>
        <time>2026-06-10T15:24:00.000Z</time>
      </trkpt>
      <trkpt lat="32.461319408081465" lon="35.54689891715337">
        <ele>-245</ele>
        <time>2026-06-10T15:24:01.000Z</time>
      </trkpt>
      <trkpt lat="32.461319408081465" lon="35.54689891715337">
        <ele>-245</ele>
        <time>2026-06-10T15:24:02.000Z</time>
      </trkpt>
      <trkpt lat="32.46134499001529" lon="35.546785269978315">
        <ele>-245</ele>
        <time>2026-06-10T15:24:03.000Z</time>
      </trkpt>
      <trkpt lat="32.46140813368726" lon="35.54652934252909">
        <ele>-245</ele>
        <time>2026-06-10T15:24:04.000Z</time>
      </trkpt>
      <trkpt lat="32.461478355410954" lon="35.546252367189204">
        <ele>-245</ele>
        <time>2026-06-10T15:24:05.000Z</time>
      </trkpt>
      <trkpt lat="32.46151337314055" lon="35.54595434395867">
        <ele>-245</ele>
        <time>2026-06-10T15:24:06.000Z</time>
      </trkpt>
      <trkpt lat="32.46101194905516" lon="35.54583178190511">
        <ele>-246</ele>
        <time>2026-06-10T15:24:07.000Z</time>
      </trkpt>
      <trkpt lat="32.460983823112784" lon="35.5457194644001">
        <ele>-246</ele>
        <time>2026-06-10T15:24:08.000Z</time>
      </trkpt>
      <trkpt lat="32.460608686371344" lon="35.54571592537424">
        <ele>-246</ele>
        <time>2026-06-10T15:24:09.000Z</time>
      </trkpt>
      <trkpt lat="32.460500094156714" lon="35.54590535639015">
        <ele>-246</ele>
        <time>2026-06-10T15:24:10.000Z</time>
      </trkpt>
      <trkpt lat="32.46054200367351" lon="35.54628757118331">
        <ele>-247</ele>
        <time>2026-06-10T15:24:11.000Z</time>
      </trkpt>
      <trkpt lat="32.460457998375404" lon="35.547153514932546">
        <ele>-245</ele>
        <time>2026-06-10T15:24:12.000Z</time>
      </trkpt>
      <trkpt lat="32.46046824292395" lon="35.54756366940357">
        <ele>-245</ele>
        <time>2026-06-10T15:24:13.000Z</time>
      </trkpt>
      <trkpt lat="32.46005473569158" lon="35.548475247959985">
        <ele>-245</ele>
        <time>2026-06-10T15:24:14.000Z</time>
      </trkpt>
      <trkpt lat="32.45992155656043" lon="35.54868218784069">
        <ele>-245</ele>
        <time>2026-06-10T15:24:15.000Z</time>
      </trkpt>
      <trkpt lat="32.459776270235544" lon="35.54904596244646">
        <ele>-246</ele>
        <time>2026-06-10T15:24:16.000Z</time>
      </trkpt>
      <trkpt lat="32.4594957558698" lon="35.54903888439474">
        <ele>-247</ele>
        <time>2026-06-10T15:24:17.000Z</time>
      </trkpt>
      <trkpt lat="32.45929589404082" lon="35.54911227261526">
        <ele>-247</ele>
        <time>2026-06-10T15:24:18.000Z</time>
      </trkpt>
      <trkpt lat="32.458899709408726" lon="35.54918268060347">
        <ele>-247</ele>
        <time>2026-06-10T15:24:19.000Z</time>
      </trkpt>
      <trkpt lat="32.45760591605915" lon="35.549533230428395">
        <ele>-246</ele>
        <time>2026-06-10T15:24:20.000Z</time>
      </trkpt>
      <trkpt lat="32.455430322744846" lon="35.55006154329974">
        <ele>-245.5</ele>
        <time>2026-06-10T15:24:21.000Z</time>
      </trkpt>
      <trkpt lat="32.455430322744846" lon="35.55006154329974">
        <ele>-245.5</ele>
        <time>2026-06-10T15:24:22.000Z</time>
      </trkpt>
      <trkpt lat="32.454934324061895" lon="35.550181989748374">
        <ele>-245</ele>
        <time>2026-06-10T15:24:23.000Z</time>
      </trkpt>
      <trkpt lat="32.451949062614496" lon="35.55084565022988">
        <ele>-248</ele>
        <time>2026-06-10T15:24:24.000Z</time>
      </trkpt>
      <trkpt lat="32.451475578206974" lon="35.550967094696325">
        <ele>-248</ele>
        <time>2026-06-10T15:24:25.000Z</time>
      </trkpt>
      <trkpt lat="32.45109373594285" lon="35.55102912078118">
        <ele>-248</ele>
        <time>2026-06-10T15:24:26.000Z</time>
      </trkpt>
      <trkpt lat="32.45097974205717" lon="35.55101924876167">
        <ele>-248</ele>
        <time>2026-06-10T15:24:27.000Z</time>
      </trkpt>
      <trkpt lat="32.450984584934666" lon="35.5508331705071">
        <ele>-248</ele>
        <time>2026-06-10T15:24:28.000Z</time>
      </trkpt>
      <trkpt lat="32.450999841759824" lon="35.55072267100801">
        <ele>-247.5</ele>
        <time>2026-06-10T15:24:29.000Z</time>
      </trkpt>
      <trkpt lat="32.450999841759824" lon="35.55072267100801">
        <ele>-247.5</ele>
        <time>2026-06-10T15:24:30.000Z</time>
      </trkpt>
      <trkpt lat="32.451123538265904" lon="35.54982678331048">
        <ele>-247</ele>
        <time>2026-06-10T15:24:31.000Z</time>
      </trkpt>
      <trkpt lat="32.45115054662117" lon="35.549184543248664">
        <ele>-248</ele>
        <time>2026-06-10T15:24:32.000Z</time>
      </trkpt>
      <trkpt lat="32.45123026783534" lon="35.548463140766245">
        <ele>-248</ele>
        <time>2026-06-10T15:24:33.000Z</time>
      </trkpt>
      <trkpt lat="32.45127981419742" lon="35.548177969787524">
        <ele>-248</ele>
        <time>2026-06-10T15:24:34.000Z</time>
      </trkpt>
      <trkpt lat="32.45148302878774" lon="35.54787305476978">
        <ele>-247</ele>
        <time>2026-06-10T15:24:35.000Z</time>
      </trkpt>
      <trkpt lat="32.4515450548726" lon="35.547682133637714">
        <ele>-247</ele>
        <time>2026-06-10T15:24:36.000Z</time>
      </trkpt>
      <trkpt lat="32.45153257514982" lon="35.54730774195435">
        <ele>-247</ele>
        <time>2026-06-10T15:24:37.000Z</time>
      </trkpt>
      <trkpt lat="32.45148302878774" lon="35.54683928668885">
        <ele>-246</ele>
        <time>2026-06-10T15:24:38.000Z</time>
      </trkpt>
      <trkpt lat="32.4515128311108" lon="35.54671281308039">
        <ele>-246</ele>
        <time>2026-06-10T15:24:39.000Z</time>
      </trkpt>
      <trkpt lat="32.45148805792976" lon="35.54611024736114">
        <ele>-245</ele>
        <time>2026-06-10T15:24:40.000Z</time>
      </trkpt>
      <trkpt lat="32.451411130683375" lon="35.544642669215264">
        <ele>-246</ele>
        <time>2026-06-10T15:24:41.000Z</time>
      </trkpt>
      <trkpt lat="32.45132936055949" lon="35.54362380229586">
        <ele>-244</ele>
        <time>2026-06-10T15:24:42.000Z</time>
      </trkpt>
      <trkpt lat="32.45131203795922" lon="35.54340792171824">
        <ele>-244</ele>
        <time>2026-06-10T15:24:43.000Z</time>
      </trkpt>
      <trkpt lat="32.45126975591339" lon="35.542893272852005">
        <ele>-243</ele>
        <time>2026-06-10T15:24:44.000Z</time>
      </trkpt>
      <trkpt lat="32.451108637104376" lon="35.54212623556241">
        <ele>-241</ele>
        <time>2026-06-10T15:24:45.000Z</time>
      </trkpt>
      <trkpt lat="32.45101475978676" lon="35.541600224560504">
        <ele>-237</ele>
        <time>2026-06-10T15:24:46.000Z</time>
      </trkpt>
      <trkpt lat="32.45091380441741" lon="35.54124017524511">
        <ele>-237</ele>
        <time>2026-06-10T15:24:47.000Z</time>
      </trkpt>
      <trkpt lat="32.45071133488516" lon="35.54128934907815">
        <ele>-237</ele>
        <time>2026-06-10T15:24:48.000Z</time>
      </trkpt>
      <trkpt lat="32.45039561652531" lon="35.54154862928872">
        <ele>-238</ele>
        <time>2026-06-10T15:24:49.000Z</time>
      </trkpt>
      <trkpt lat="32.44981018714183" lon="35.541795988570065">
        <ele>-238</ele>
        <time>2026-06-10T15:24:50.000Z</time>
      </trkpt>
      <trkpt lat="32.449115047956596" lon="35.54191855062362">
        <ele>-238</ele>
        <time>2026-06-10T15:24:51.000Z</time>
      </trkpt>
      <trkpt lat="32.448972369334975" lon="35.54195729364359">
        <ele>-238</ele>
        <time>2026-06-10T15:24:52.000Z</time>
      </trkpt>
      <trkpt lat="32.44888855030138" lon="35.54206532706466">
        <ele>-241</ele>
        <time>2026-06-10T15:24:53.000Z</time>
      </trkpt>
      <trkpt lat="32.44891497072868" lon="35.54249960245293">
        <ele>-241</ele>
        <time>2026-06-10T15:24:54.000Z</time>
      </trkpt>
      <trkpt lat="32.44891497072868" lon="35.54249960245293">
        <ele>-241</ele>
        <time>2026-06-10T15:24:55.000Z</time>
      </trkpt>
      <trkpt lat="32.44894778241846" lon="35.54303893170593">
        <ele>-241</ele>
        <time>2026-06-10T15:24:56.000Z</time>
      </trkpt>
      <trkpt lat="32.44897367318661" lon="35.543777470524105">
        <ele>-242</ele>
        <time>2026-06-10T15:24:57.000Z</time>
      </trkpt>
      <trkpt lat="32.44890568663714" lon="35.54397509717886">
        <ele>-242</ele>
        <time>2026-06-10T15:24:58.000Z</time>
      </trkpt>
      <trkpt lat="32.448607663406605" lon="35.54436420375923">
        <ele>-242</ele>
        <time>2026-06-10T15:24:59.000Z</time>
      </trkpt>
      <trkpt lat="32.448393459209655" lon="35.544683088615905">
        <ele>-244</ele>
        <time>2026-06-10T15:25:00.000Z</time>
      </trkpt>
      <trkpt lat="32.44836570579631" lon="35.544935290774745">
        <ele>-244</ele>
        <time>2026-06-10T15:25:01.000Z</time>
      </trkpt>
      <trkpt lat="32.44822190958757" lon="35.54506548967359">
        <ele>-244</ele>
        <time>2026-06-10T15:25:02.000Z</time>
      </trkpt>
      <trkpt lat="32.44769608485019" lon="35.54517762091408">
        <ele>-245</ele>
        <time>2026-06-10T15:25:03.000Z</time>
      </trkpt>
      <trkpt lat="32.44717528925483" lon="35.54525473442498">
        <ele>-245</ele>
        <time>2026-06-10T15:25:04.000Z</time>
      </trkpt>
      <trkpt lat="32.44654778152545" lon="35.54527649689759">
        <ele>-244.5</ele>
        <time>2026-06-10T15:25:05.000Z</time>
      </trkpt>
      <trkpt lat="32.44654778152545" lon="35.54527649689759">
        <ele>-244.5</ele>
        <time>2026-06-10T15:25:06.000Z</time>
      </trkpt>
      <trkpt lat="32.444645630821114" lon="35.54534246501347">
        <ele>-244</ele>
        <time>2026-06-10T15:25:07.000Z</time>
      </trkpt>
      <trkpt lat="32.44419338056878" lon="35.54533892598761">
        <ele>-243</ele>
        <time>2026-06-10T15:25:08.000Z</time>
      </trkpt>
      <trkpt lat="32.442303540758125" lon="35.545125094319694">
        <ele>-244</ele>
        <time>2026-06-10T15:25:09.000Z</time>
      </trkpt>
      <trkpt lat="32.44133589658147" lon="35.54518115993994">
        <ele>-244</ele>
        <time>2026-06-10T15:25:10.000Z</time>
      </trkpt>
      <trkpt lat="32.44039730966979" lon="35.54525901850892">
        <ele>-244</ele>
        <time>2026-06-10T15:25:11.000Z</time>
      </trkpt>
      <trkpt lat="32.43684282385207" lon="35.545533199881014">
        <ele>-245</ele>
        <time>2026-06-10T15:25:12.000Z</time>
      </trkpt>
      <trkpt lat="32.436665313765374" lon="35.54548141834471">
        <ele>-245</ele>
        <time>2026-06-10T15:25:13.000Z</time>
      </trkpt>
      <trkpt lat="32.43484569567842" lon="35.54462236638268">
        <ele>-246</ele>
        <time>2026-06-10T15:25:14.000Z</time>
      </trkpt>
      <trkpt lat="32.434674146056345" lon="35.544620131208454">
        <ele>-246</ele>
        <time>2026-06-10T15:25:15.000Z</time>
      </trkpt>
      <trkpt lat="32.43416750656443" lon="35.544829119998866">
        <ele>-245</ele>
        <time>2026-06-10T15:25:16.000Z</time>
      </trkpt>
      <trkpt lat="32.43377933130665" lon="35.5448714020447">
        <ele>-245</ele>
        <time>2026-06-10T15:25:17.000Z</time>
      </trkpt>
      <trkpt lat="32.433283122627806" lon="35.54495298590406">
        <ele>-245</ele>
        <time>2026-06-10T15:25:18.000Z</time>
      </trkpt>
      <trkpt lat="32.43267254753424" lon="35.54504127528611">
        <ele>-245</ele>
        <time>2026-06-10T15:25:19.000Z</time>
      </trkpt>
      <trkpt lat="32.43257010204874" lon="35.54494143750388">
        <ele>-245</ele>
        <time>2026-06-10T15:25:20.000Z</time>
      </trkpt>
      <trkpt lat="32.43254458380963" lon="35.544070092083594">
        <ele>-245</ele>
        <time>2026-06-10T15:25:21.000Z</time>
      </trkpt>
      <trkpt lat="32.43239166063946" lon="35.54398943954683">
        <ele>-245</ele>
        <time>2026-06-10T15:25:22.000Z</time>
      </trkpt>
      <trkpt lat="32.43055807271357" lon="35.54419321293071">
        <ele>-246</ele>
        <time>2026-06-10T15:25:23.000Z</time>
      </trkpt>
      <trkpt lat="32.429910430980705" lon="35.54425784671883">
        <ele>-245</ele>
        <time>2026-06-10T15:25:24.000Z</time>
      </trkpt>
      <trkpt lat="32.429811338256556" lon="35.54368359320649">
        <ele>-243</ele>
        <time>2026-06-10T15:25:25.000Z</time>
      </trkpt>
      <trkpt lat="32.428983019940176" lon="35.543533277739584">
        <ele>-243</ele>
        <time>2026-06-10T15:25:26.000Z</time>
      </trkpt>
      <trkpt lat="32.428801784563106" lon="35.54217969347938">
        <ele>-244</ele>
        <time>2026-06-10T15:25:27.000Z</time>
      </trkpt>
      <trkpt lat="32.42853691641697" lon="35.5420373873868">
        <ele>-244</ele>
        <time>2026-06-10T15:25:28.000Z</time>
      </trkpt>
      <trkpt lat="32.42761472078297" lon="35.54271166494589">
        <ele>-244</ele>
        <time>2026-06-10T15:25:29.000Z</time>
      </trkpt>
      <trkpt lat="32.426275851419774" lon="35.543673534922455">
        <ele>-246</ele>
        <time>2026-06-10T15:25:30.000Z</time>
      </trkpt>
      <trkpt lat="32.4261082133526" lon="35.54367148601275">
        <ele>-246</ele>
        <time>2026-06-10T15:25:31.000Z</time>
      </trkpt>
      <trkpt lat="32.42596885317278" lon="35.54368075109591">
        <ele>-246</ele>
        <time>2026-06-10T15:25:32.000Z</time>
      </trkpt>
      <trkpt lat="32.42596885317278" lon="35.54368075109591">
        <ele>-246</ele>
        <time>2026-06-10T15:25:33.000Z</time>
      </trkpt>
      <trkpt lat="32.42252485653441" lon="35.54390971833266">
        <ele>-246</ele>
        <time>2026-06-10T15:25:34.000Z</time>
      </trkpt>
      <trkpt lat="32.42242874404256" lon="35.54240879883786">
        <ele>-243</ele>
        <time>2026-06-10T15:25:35.000Z</time>
      </trkpt>
      <trkpt lat="32.42224769493001" lon="35.542377133869614">
        <ele>-243</ele>
        <time>2026-06-10T15:25:36.000Z</time>
      </trkpt>
      <trkpt lat="32.42216704239325" lon="35.540964131227824">
        <ele>-244</ele>
        <time>2026-06-10T15:25:37.000Z</time>
      </trkpt>
      <trkpt lat="32.422059381501214" lon="35.541206647631675">
        <ele>-239</ele>
        <time>2026-06-10T15:25:38.000Z</time>
      </trkpt>
      <trkpt lat="32.42192974139593" lon="35.54106490033265">
        <ele>-239</ele>
        <time>2026-06-10T15:25:39.000Z</time>
      </trkpt>
      <trkpt lat="32.421537095789695" lon="35.54111034887531">
        <ele>-239</ele>
        <time>2026-06-10T15:25:40.000Z</time>
      </trkpt>
      <trkpt lat="32.42111613797656" lon="35.54091383980767">
        <ele>-240</ele>
        <time>2026-06-10T15:25:41.000Z</time>
      </trkpt>
      <trkpt lat="32.42123534726878" lon="35.540705596075334">
        <ele>-240</ele>
        <time>2026-06-10T15:25:42.000Z</time>
      </trkpt>
      <trkpt lat="32.421082982892166" lon="35.537593861019474">
        <ele>-240</ele>
        <time>2026-06-10T15:25:43.000Z</time>
      </trkpt>
      <trkpt lat="32.42097960608407" lon="35.537234370497636">
        <ele>-240</ele>
        <time>2026-06-10T15:25:44.000Z</time>
      </trkpt>
      <trkpt lat="32.420793714094025" lon="35.53705555655932">
        <ele>-240</ele>
        <time>2026-06-10T15:25:45.000Z</time>
      </trkpt>
      <trkpt lat="32.41985847994369" lon="35.53725038924628">
        <ele>-244</ele>
        <time>2026-06-10T15:25:46.000Z</time>
      </trkpt>
      <trkpt lat="32.41833315979689" lon="35.537530531082986">
        <ele>-238</ele>
        <time>2026-06-10T15:25:47.000Z</time>
      </trkpt>
      <trkpt lat="32.41819439273017" lon="35.53757057795459">
        <ele>-238</ele>
        <time>2026-06-10T15:25:48.000Z</time>
      </trkpt>
      <trkpt lat="32.418022470579054" lon="35.53757802853535">
        <ele>-238</ele>
        <time>2026-06-10T15:25:49.000Z</time>
      </trkpt>
      <trkpt lat="32.41778107176232" lon="35.537618261671476">
        <ele>-237</ele>
        <time>2026-06-10T15:25:50.000Z</time>
      </trkpt>
      <trkpt lat="32.41760561058534" lon="35.53762198696186">
        <ele>-237</ele>
        <time>2026-06-10T15:25:51.000Z</time>
      </trkpt>
      <trkpt lat="32.41736067274274" lon="35.53775367597685">
        <ele>-237</ele>
        <time>2026-06-10T15:25:52.000Z</time>
      </trkpt>
      <trkpt lat="32.417249845353886" lon="35.53784718076543">
        <ele>-237</ele>
        <time>2026-06-10T15:25:53.000Z</time>
      </trkpt>
      <trkpt lat="32.4171494487781" lon="35.53763111392329">
        <ele>-238</ele>
        <time>2026-06-10T15:25:54.000Z</time>
      </trkpt>
      <trkpt lat="32.41696094908478" lon="35.537226174858795">
        <ele>-238</ele>
        <time>2026-06-10T15:25:55.000Z</time>
      </trkpt>
      <trkpt lat="32.41659903712419" lon="35.53658393479699">
        <ele>-238</ele>
        <time>2026-06-10T15:25:56.000Z</time>
      </trkpt>
      <trkpt lat="32.41612052357466" lon="35.53651334054425">
        <ele>-237</ele>
        <time>2026-06-10T15:25:57.000Z</time>
      </trkpt>
      <trkpt lat="32.415425198124915" lon="35.53641797311048">
        <ele>-237</ele>
        <time>2026-06-10T15:25:58.000Z</time>
      </trkpt>
      <trkpt lat="32.41503590528002" lon="35.536422815987976">
        <ele>-237</ele>
        <time>2026-06-10T15:25:59.000Z</time>
      </trkpt>
      <trkpt lat="32.41489453051003" lon="35.536448147962574">
        <ele>-237</ele>
        <time>2026-06-10T15:26:00.000Z</time>
      </trkpt>
      <trkpt lat="32.414487170006794" lon="35.53079613739541">
        <ele>-228</ele>
        <time>2026-06-10T15:26:01.000Z</time>
      </trkpt>
      <trkpt lat="32.41426719160975" lon="35.5297644182242">
        <ele>-227</ele>
        <time>2026-06-10T15:26:02.000Z</time>
      </trkpt>
      <trkpt lat="32.41424562194259" lon="35.52968535909363">
        <ele>-227</ele>
        <time>2026-06-10T15:26:03.000Z</time>
      </trkpt>
      <trkpt lat="32.41424562194259" lon="35.52968535909363">
        <ele>-227</ele>
        <time>2026-06-10T15:26:04.000Z</time>
      </trkpt>
      <trkpt lat="32.41399617673448" lon="35.52877106954391">
        <ele>-227</ele>
        <time>2026-06-10T15:26:05.000Z</time>
      </trkpt>
      <trkpt lat="32.413906583500804" lon="35.52825511682604">
        <ele>-226</ele>
        <time>2026-06-10T15:26:06.000Z</time>
      </trkpt>
      <trkpt lat="32.4138948488361" lon="35.52803532469352">
        <ele>-226</ele>
        <time>2026-06-10T15:26:07.000Z</time>
      </trkpt>
      <trkpt lat="32.41486714962573" lon="35.52792077201428">
        <ele>-224</ele>
        <time>2026-06-10T15:26:08.000Z</time>
      </trkpt>
      <trkpt lat="32.416820878166426" lon="35.527711224430305">
        <ele>-223</ele>
        <time>2026-06-10T15:26:09.000Z</time>
      </trkpt>
      <trkpt lat="32.41725990363791" lon="35.52776766257959">
        <ele>-222</ele>
        <time>2026-06-10T15:26:10.000Z</time>
      </trkpt>
      <trkpt lat="32.417511733267716" lon="35.52782521831599">
        <ele>-222</ele>
        <time>2026-06-10T15:26:11.000Z</time>
      </trkpt>
      <trkpt lat="32.41771327147737" lon="35.5278067781286">
        <ele>-222</ele>
        <time>2026-06-10T15:26:12.000Z</time>
      </trkpt>
      <trkpt lat="32.41812268089032" lon="35.52784533488405">
        <ele>-221</ele>
        <time>2026-06-10T15:26:13.000Z</time>
      </trkpt>
      <trkpt lat="32.41827579032501" lon="35.527407613264195">
        <ele>-221</ele>
        <time>2026-06-10T15:26:14.000Z</time>
      </trkpt>
      <trkpt lat="32.41916725231336" lon="35.52492750119256">
        <ele>-217</ele>
        <time>2026-06-10T15:26:15.000Z</time>
      </trkpt>
      <trkpt lat="32.41920208377843" lon="35.52410216310849">
        <ele>-217</ele>
        <time>2026-06-10T15:26:16.000Z</time>
      </trkpt>
      <trkpt lat="32.41919146670084" lon="35.523270864559805">
        <ele>-217</ele>
        <time>2026-06-10T15:26:17.000Z</time>
      </trkpt>
      <trkpt lat="32.41900184942041" lon="35.52307621813736">
        <ele>-217</ele>
        <time>2026-06-10T15:26:18.000Z</time>
      </trkpt>
      <trkpt lat="32.41887500328291" lon="35.522809673610546">
        <ele>-213</ele>
        <time>2026-06-10T15:26:19.000Z</time>
      </trkpt>
      <trkpt lat="32.41875262749387" lon="35.52272902107378">
        <ele>-214</ele>
        <time>2026-06-10T15:26:20.000Z</time>
      </trkpt>
      <trkpt lat="32.41814633648425" lon="35.522694189608714">
        <ele>-214</ele>
        <time>2026-06-10T15:26:21.000Z</time>
      </trkpt>
      <trkpt lat="32.41780118833038" lon="35.52264184927885">
        <ele>-212</ele>
        <time>2026-06-10T15:26:22.000Z</time>
      </trkpt>
      <trkpt lat="32.4179604444942" lon="35.52193329904824">
        <ele>-210</ele>
        <time>2026-06-10T15:26:23.000Z</time>
      </trkpt>
      <trkpt lat="32.41796808133948" lon="35.521245424179256">
        <ele>-210</ele>
        <time>2026-06-10T15:26:24.000Z</time>
      </trkpt>
      <trkpt lat="32.41790083984809" lon="35.5209725466588">
        <ele>-206</ele>
        <time>2026-06-10T15:26:25.000Z</time>
      </trkpt>
      <trkpt lat="32.41794796477142" lon="35.52074567647455">
        <ele>-206</ele>
        <time>2026-06-10T15:26:26.000Z</time>
      </trkpt>
      <trkpt lat="32.41820594113035" lon="35.52025859475714">
        <ele>-204</ele>
        <time>2026-06-10T15:26:27.000Z</time>
      </trkpt>
      <trkpt lat="32.41864515286636" lon="35.51950068442898">
        <ele>-203</ele>
        <time>2026-06-10T15:26:28.000Z</time>
      </trkpt>
      <trkpt lat="32.41894447994853" lon="35.519274931831845">
        <ele>-202</ele>
        <time>2026-06-10T15:26:29.000Z</time>
      </trkpt>
      <trkpt lat="32.4192847852249" lon="35.51886887518023">
        <ele>-202</ele>
        <time>2026-06-10T15:26:30.000Z</time>
      </trkpt>
      <trkpt lat="32.41961000307523" lon="35.518639956086275">
        <ele>-201</ele>
        <time>2026-06-10T15:26:31.000Z</time>
      </trkpt>
      <trkpt lat="32.420011589378376" lon="35.518697139293636">
        <ele>-202</ele>
        <time>2026-06-10T15:26:32.000Z</time>
      </trkpt>
      <trkpt lat="32.420856709433174" lon="35.51875946039181">
        <ele>-203</ele>
        <time>2026-06-10T15:26:33.000Z</time>
      </trkpt>
      <trkpt lat="32.420856709433174" lon="35.51875946039181">
        <ele>-203</ele>
        <time>2026-06-10T15:26:34.000Z</time>
      </trkpt>
      <trkpt lat="32.422340454660514" lon="35.51886887518023">
        <ele>-204</ele>
        <time>2026-06-10T15:26:35.000Z</time>
      </trkpt>
      <trkpt lat="32.42357929997696" lon="35.518927362239225">
        <ele>-202</ele>
        <time>2026-06-10T15:26:36.000Z</time>
      </trkpt>
      <trkpt lat="32.4236118962678" lon="35.51840079244377">
        <ele>-203</ele>
        <time>2026-06-10T15:26:37.000Z</time>
      </trkpt>
      <trkpt lat="32.4236314540423" lon="35.517520878855606">
        <ele>-201</ele>
        <time>2026-06-10T15:26:38.000Z</time>
      </trkpt>
      <trkpt lat="32.42375718259269" lon="35.515304331078475">
        <ele>-198</ele>
        <time>2026-06-10T15:26:39.000Z</time>
      </trkpt>
      <trkpt lat="32.42379424294073" lon="35.514364785338">
        <ele>-196</ele>
        <time>2026-06-10T15:26:40.000Z</time>
      </trkpt>
      <trkpt lat="32.42379424294073" lon="35.514364785338">
        <ele>-196</ele>
        <time>2026-06-10T15:26:41.000Z</time>
      </trkpt>
      <trkpt lat="32.423804307516015" lon="35.514109630453056">
        <ele>-194</ele>
        <time>2026-06-10T15:26:42.000Z</time>
      </trkpt>
      <trkpt lat="32.423804307516015" lon="35.51352792635995">
        <ele>-193</ele>
        <time>2026-06-10T15:26:43.000Z</time>
      </trkpt>
      <trkpt lat="32.42402782493892" lon="35.51340108022245">
        <ele>-192</ele>
        <time>2026-06-10T15:26:44.000Z</time>
      </trkpt>
      <trkpt lat="32.42461139167722" lon="35.51170123022127">
        <ele>-190</ele>
        <time>2026-06-10T15:26:45.000Z</time>
      </trkpt>
      <trkpt lat="32.42819940510838" lon="35.51179194104206">
        <ele>-188</ele>
        <time>2026-06-10T15:26:46.000Z</time>
      </trkpt>
      <trkpt lat="32.429586703246535" lon="35.51180721473263">
        <ele>-188</ele>
        <time>2026-06-10T15:26:47.000Z</time>
      </trkpt>
      <trkpt lat="32.43074489602621" lon="35.511822674687714">
        <ele>-186</ele>
        <time>2026-06-10T15:26:48.000Z</time>
      </trkpt>
      <trkpt lat="32.431104200283535" lon="35.51200689029709">
        <ele>-186</ele>
        <time>2026-06-10T15:26:49.000Z</time>
      </trkpt>
      <trkpt lat="32.43254793657097" lon="35.51244796467829">
        <ele>-189</ele>
        <time>2026-06-10T15:26:50.000Z</time>
      </trkpt>
      <trkpt lat="32.432620626588104" lon="35.51251138300956">
        <ele>-189</ele>
        <time>2026-06-10T15:26:51.000Z</time>
      </trkpt>
      <trkpt lat="32.432620626588104" lon="35.51251138300956">
        <ele>-189</ele>
        <time>2026-06-10T15:26:52.000Z</time>
      </trkpt>
      <trkpt lat="32.43269396795394" lon="35.512575369609344">
        <ele>-189</ele>
        <time>2026-06-10T15:26:53.000Z</time>
      </trkpt>
      <trkpt lat="32.43272395654151" lon="35.51262696488113">
        <ele>-189</ele>
        <time>2026-06-10T15:26:54.000Z</time>
      </trkpt>
      <trkpt lat="32.43273997529015" lon="35.51271991087615">
        <ele>-189</ele>
        <time>2026-06-10T15:26:55.000Z</time>
      </trkpt>
      <trkpt lat="32.43272991700612" lon="35.5128579328848">
        <ele>-189</ele>
        <time>2026-06-10T15:26:56.000Z</time>
      </trkpt>
      <trkpt lat="32.43269787950884" lon="35.51300172909353">
        <ele>-191</ele>
        <time>2026-06-10T15:26:57.000Z</time>
      </trkpt>
      <trkpt lat="32.432634922101386" lon="35.51315483852822">
        <ele>-191</ele>
        <time>2026-06-10T15:26:58.000Z</time>
      </trkpt>
      <trkpt lat="32.4325658179648" lon="35.5132531861943">
        <ele>-191</ele>
        <time>2026-06-10T15:26:59.000Z</time>
      </trkpt>
      <trkpt lat="32.43258481694575" lon="35.513595912909416">
        <ele>-191</ele>
        <time>2026-06-10T15:27:00.000Z</time>
      </trkpt>
      <trkpt lat="32.43255091680328" lon="35.513728719511526">
        <ele>-191</ele>
        <time>2026-06-10T15:27:01.000Z</time>
      </trkpt>
      <trkpt lat="32.43245089275653" lon="35.51394087479876">
        <ele>-194</ele>
        <time>2026-06-10T15:27:02.000Z</time>
      </trkpt>
      <trkpt lat="32.43228288216031" lon="35.514133844840536">
        <ele>-194</ele>
        <time>2026-06-10T15:27:03.000Z</time>
      </trkpt>
      <trkpt lat="32.43200199526553" lon="35.51438288050256">
        <ele>-194</ele>
        <time>2026-06-10T15:27:04.000Z</time>
      </trkpt>
      <trkpt lat="32.43192283284492" lon="35.51449594306564">
        <ele>-194</ele>
        <time>2026-06-10T15:27:05.000Z</time>
      </trkpt>
      <trkpt lat="32.43183800764302" lon="35.51466722472332">
        <ele>-195.5</ele>
        <time>2026-06-10T15:27:06.000Z</time>
      </trkpt>
      <trkpt lat="32.43183800764302" lon="35.51466722472332">
        <ele>-195.5</ele>
        <time>2026-06-10T15:27:07.000Z</time>
      </trkpt>
      <trkpt lat="32.43192283284492" lon="35.51449594306564">
        <ele>-194</ele>
        <time>2026-06-10T15:27:08.000Z</time>
      </trkpt>
      <trkpt lat="32.43200199526553" lon="35.51438288050256">
        <ele>-194</ele>
        <time>2026-06-10T15:27:09.000Z</time>
      </trkpt>
      <trkpt lat="32.43228288216031" lon="35.514133844840536">
        <ele>-194</ele>
        <time>2026-06-10T15:27:10.000Z</time>
      </trkpt>
      <trkpt lat="32.43245089275653" lon="35.51394087479876">
        <ele>-194</ele>
        <time>2026-06-10T15:27:11.000Z</time>
      </trkpt>
      <trkpt lat="32.43255091680328" lon="35.513728719511526">
        <ele>-191</ele>
        <time>2026-06-10T15:27:12.000Z</time>
      </trkpt>
      <trkpt lat="32.43258481694575" lon="35.513595912909416">
        <ele>-191</ele>
        <time>2026-06-10T15:27:13.000Z</time>
      </trkpt>
      <trkpt lat="32.4325658179648" lon="35.5132531861943">
        <ele>-191</ele>
        <time>2026-06-10T15:27:14.000Z</time>
      </trkpt>
      <trkpt lat="32.432634922101386" lon="35.51315483852822">
        <ele>-191</ele>
        <time>2026-06-10T15:27:15.000Z</time>
      </trkpt>
      <trkpt lat="32.43269787950884" lon="35.51300172909353">
        <ele>-191</ele>
        <time>2026-06-10T15:27:16.000Z</time>
      </trkpt>
      <trkpt lat="32.43272991700612" lon="35.5128579328848">
        <ele>-189</ele>
        <time>2026-06-10T15:27:17.000Z</time>
      </trkpt>
      <trkpt lat="32.43273997529015" lon="35.51271991087615">
        <ele>-189</ele>
        <time>2026-06-10T15:27:18.000Z</time>
      </trkpt>
      <trkpt lat="32.43272395654151" lon="35.51262696488113">
        <ele>-189</ele>
        <time>2026-06-10T15:27:19.000Z</time>
      </trkpt>
      <trkpt lat="32.43269396795394" lon="35.512575369609344">
        <ele>-189</ele>
        <time>2026-06-10T15:27:20.000Z</time>
      </trkpt>
      <trkpt lat="32.43254793657097" lon="35.51244796467829">
        <ele>-189</ele>
        <time>2026-06-10T15:27:21.000Z</time>
      </trkpt>
      <trkpt lat="32.431104200283535" lon="35.51200689029709">
        <ele>-186</ele>
        <time>2026-06-10T15:27:22.000Z</time>
      </trkpt>
      <trkpt lat="32.43074489602621" lon="35.511822674687714">
        <ele>-186</ele>
        <time>2026-06-10T15:27:23.000Z</time>
      </trkpt>
      <trkpt lat="32.429586703246535" lon="35.51180721473263">
        <ele>-188</ele>
        <time>2026-06-10T15:27:24.000Z</time>
      </trkpt>
      <trkpt lat="32.429574037259236" lon="35.51169769119541">
        <ele>-188</ele>
        <time>2026-06-10T15:27:25.000Z</time>
      </trkpt>
      <trkpt lat="32.42954870528464" lon="35.511438969778396">
        <ele>-188</ele>
        <time>2026-06-10T15:27:26.000Z</time>
      </trkpt>
      <trkpt lat="32.429553734426655" lon="35.51020552613301">
        <ele>-185</ele>
        <time>2026-06-10T15:27:27.000Z</time>
      </trkpt>
      <trkpt lat="32.42965524858956" lon="35.508051935763326">
        <ele>-180</ele>
        <time>2026-06-10T15:27:28.000Z</time>
      </trkpt>
      <trkpt lat="32.42968579597069" lon="35.50625317930251">
        <ele>-176</ele>
        <time>2026-06-10T15:27:29.000Z</time>
      </trkpt>
      <trkpt lat="32.42966549313811" lon="35.50467104847739">
        <ele>-174</ele>
        <time>2026-06-10T15:27:30.000Z</time>
      </trkpt>
      <trkpt lat="32.42967052228013" lon="35.500622216626006">
        <ele>-165</ele>
        <time>2026-06-10T15:27:31.000Z</time>
      </trkpt>
      <trkpt lat="32.42968579597069" lon="35.50030333176933">
        <ele>-164</ele>
        <time>2026-06-10T15:27:32.000Z</time>
      </trkpt>
      <trkpt lat="32.429772036443026" lon="35.50010477379199">
        <ele>-164</ele>
        <time>2026-06-10T15:27:33.000Z</time>
      </trkpt>
      <trkpt lat="32.429899068845046" lon="35.50005075708145">
        <ele>-164</ele>
        <time>2026-06-10T15:27:34.000Z</time>
      </trkpt>
      <trkpt lat="32.43020733662413" lon="35.49999990686774">
        <ele>-164</ele>
        <time>2026-06-10T15:27:35.000Z</time>
      </trkpt>
      <trkpt lat="32.433354002898284" lon="35.499631426149875">
        <ele>-163.5</ele>
        <time>2026-06-10T15:27:36.000Z</time>
      </trkpt>
      <trkpt lat="32.433354002898284" lon="35.499631426149875">
        <ele>-163.5</ele>
        <time>2026-06-10T15:27:37.000Z</time>
      </trkpt>
      <trkpt lat="32.43396596835478" lon="35.49955976380914">
        <ele>-163</ele>
        <time>2026-06-10T15:27:38.000Z</time>
      </trkpt>
      <trkpt lat="32.43514595408319" lon="35.49941540880685">
        <ele>-161</ele>
        <time>2026-06-10T15:27:39.000Z</time>
      </trkpt>
      <trkpt lat="32.43622312179706" lon="35.49920455737124">
        <ele>-161</ele>
        <time>2026-06-10T15:27:40.000Z</time>
      </trkpt>
      <trkpt lat="32.436775768625196" lon="35.49929321928233">
        <ele>-162</ele>
        <time>2026-06-10T15:27:41.000Z</time>
      </trkpt>
      <trkpt lat="32.43692831926633" lon="35.49932097269567">
        <ele>-162</ele>
        <time>2026-06-10T15:27:42.000Z</time>
      </trkpt>
      <trkpt lat="32.437006550364345" lon="35.49935189260584">
        <ele>-162</ele>
        <time>2026-06-10T15:27:43.000Z</time>
      </trkpt>
      <trkpt lat="32.4374502324488" lon="35.499856110659">
        <ele>-162</ele>
        <time>2026-06-10T15:27:44.000Z</time>
      </trkpt>
      <trkpt lat="32.43758173519928" lon="35.50008391216585">
        <ele>-162</ele>
        <time>2026-06-10T15:27:45.000Z</time>
      </trkpt>
      <trkpt lat="32.43797587092167" lon="35.50054156408925">
        <ele>-162</ele>
        <time>2026-06-10T15:27:46.000Z</time>
      </trkpt>
      <trkpt lat="32.43913424996587" lon="35.50163437802272">
        <ele>-162</ele>
        <time>2026-06-10T15:27:47.000Z</time>
      </trkpt>
      <trkpt lat="32.43968633800044" lon="35.50169975686892">
        <ele>-163</ele>
        <time>2026-06-10T15:27:48.000Z</time>
      </trkpt>
      <trkpt lat="32.44162535164413" lon="35.501662317700585">
        <ele>-161</ele>
        <time>2026-06-10T15:27:49.000Z</time>
      </trkpt>
      <trkpt lat="32.4425082454646" lon="35.5016809441525">
        <ele>-161</ele>
        <time>2026-06-10T15:27:50.000Z</time>
      </trkpt>
      <trkpt lat="32.442886548702866" lon="35.50194264580181">
        <ele>-161</ele>
        <time>2026-06-10T15:27:51.000Z</time>
      </trkpt>
      <trkpt lat="32.443257028831326" lon="35.50215740879232">
        <ele>-165</ele>
        <time>2026-06-10T15:27:52.000Z</time>
      </trkpt>
      <trkpt lat="32.443595843991545" lon="35.50225985427782">
        <ele>-165</ele>
        <time>2026-06-10T15:27:53.000Z</time>
      </trkpt>
      <trkpt lat="32.44395123669396" lon="35.502237875064566">
        <ele>-163</ele>
        <time>2026-06-10T15:27:54.000Z</time>
      </trkpt>
      <trkpt lat="32.44410825768355" lon="35.50236285855687">
        <ele>-163</ele>
        <time>2026-06-10T15:27:55.000Z</time>
      </trkpt>
      <trkpt lat="32.444171215091" lon="35.502484303023316">
        <ele>-163</ele>
        <time>2026-06-10T15:27:56.000Z</time>
      </trkpt>
      <trkpt lat="32.444242368137296" lon="35.502680439561914">
        <ele>-163</ele>
        <time>2026-06-10T15:27:57.000Z</time>
      </trkpt>
      <trkpt lat="32.445069941395595" lon="35.50286726287456">
        <ele>-160</ele>
        <time>2026-06-10T15:27:58.000Z</time>
      </trkpt>
      <trkpt lat="32.445227521178744" lon="35.50297008088909">
        <ele>-167</ele>
        <time>2026-06-10T15:27:59.000Z</time>
      </trkpt>
      <trkpt lat="32.4452515493017" lon="35.50308984897487">
        <ele>-167</ele>
        <time>2026-06-10T15:28:00.000Z</time>
      </trkpt>
      <trkpt lat="32.44524912786296" lon="35.503126729349646">
        <ele>-167</ele>
        <time>2026-06-10T15:28:01.000Z</time>
      </trkpt>
      <trkpt lat="32.44647959127604" lon="35.50320272527343">
        <ele>-168</ele>
        <time>2026-06-10T15:28:02.000Z</time>
      </trkpt>
      <trkpt lat="32.446562665251555" lon="35.50325227163551">
        <ele>-168</ele>
        <time>2026-06-10T15:28:03.000Z</time>
      </trkpt>
      <trkpt lat="32.44704155133012" lon="35.503359187469464">
        <ele>-168</ele>
        <time>2026-06-10T15:28:04.000Z</time>
      </trkpt>
      <trkpt lat="32.44711363569901" lon="35.503375392482624">
        <ele>-168</ele>
        <time>2026-06-10T15:28:05.000Z</time>
      </trkpt>
      <trkpt lat="32.44728034244359" lon="35.50352328651078">
        <ele>-169</ele>
        <time>2026-06-10T15:28:06.000Z</time>
      </trkpt>
      <trkpt lat="32.447550798525306" lon="35.50353557996904">
        <ele>-169</ele>
        <time>2026-06-10T15:28:07.000Z</time>
      </trkpt>
      <trkpt lat="32.448070849062596" lon="35.503658887080675">
        <ele>-167</ele>
        <time>2026-06-10T15:28:08.000Z</time>
      </trkpt>
      <trkpt lat="32.448590899599886" lon="35.503695767455454">
        <ele>-167</ele>
        <time>2026-06-10T15:28:09.000Z</time>
      </trkpt>
      <trkpt lat="32.449546622847315" lon="35.503741961056186">
        <ele>-166</ele>
        <time>2026-06-10T15:28:10.000Z</time>
      </trkpt>
      <trkpt lat="32.44960995278381" lon="35.50374512755301">
        <ele>-166</ele>
        <time>2026-06-10T15:28:11.000Z</time>
      </trkpt>
      <trkpt lat="32.44963131768389" lon="35.50374704662544">
        <ele>-167.5</ele>
        <time>2026-06-10T15:28:12.000Z</time>
      </trkpt>
      <trkpt lat="32.44963131768389" lon="35.50374704662544">
        <ele>-167.5</ele>
        <time>2026-06-10T15:28:13.000Z</time>
      </trkpt>
      <trkpt lat="32.45029633753664" lon="35.50380678110883">
        <ele>-169</ele>
        <time>2026-06-10T15:28:14.000Z</time>
      </trkpt>
      <trkpt lat="32.45115296805992" lon="35.50388240450358">
        <ele>-169</ele>
        <time>2026-06-10T15:28:15.000Z</time>
      </trkpt>
      <trkpt lat="32.45105108136798" lon="35.50421674931534">
        <ele>-169</ele>
        <time>2026-06-10T15:28:16.000Z</time>
      </trkpt>
      <trkpt lat="32.451935092775564" lon="35.504261452799916">
        <ele>-169</ele>
        <time>2026-06-10T15:28:17.000Z</time>
      </trkpt>
      <trkpt lat="32.45245830980968" lon="35.50423630708984">
        <ele>-169</ele>
        <time>2026-06-10T15:28:18.000Z</time>
      </trkpt>
      <trkpt lat="32.45356472105305" lon="35.50434936965293">
        <ele>-170</ele>
        <time>2026-06-10T15:28:19.000Z</time>
      </trkpt>
      <trkpt lat="32.45414623888164" lon="35.504379171975984">
        <ele>-169</ele>
        <time>2026-06-10T15:28:20.000Z</time>
      </trkpt>
      <trkpt lat="32.45414623888164" lon="35.504409160563554">
        <ele>-169</ele>
        <time>2026-06-10T15:28:21.000Z</time>
      </trkpt>
      <trkpt lat="32.45391340823278" lon="35.50538909819847">
        <ele>-174</ele>
        <time>2026-06-10T15:28:22.000Z</time>
      </trkpt>
      <trkpt lat="32.45391806484576" lon="35.50581918297304">
        <ele>-176</ele>
        <time>2026-06-10T15:28:23.000Z</time>
      </trkpt>
      <trkpt lat="32.45415797354634" lon="35.50583073137322">
        <ele>-176</ele>
        <time>2026-06-10T15:28:24.000Z</time>
      </trkpt>
      <trkpt lat="32.45428798618066" lon="35.50679669916921">
        <ele>-177</ele>
        <time>2026-06-10T15:28:25.000Z</time>
      </trkpt>
      <trkpt lat="32.455013859011544" lon="35.506913673287194">
        <ele>-177</ele>
        <time>2026-06-10T15:28:26.000Z</time>
      </trkpt>
      <trkpt lat="32.455671931557475" lon="35.50638915240145">
        <ele>-177</ele>
        <time>2026-06-10T15:28:27.000Z</time>
      </trkpt>
      <trkpt lat="32.4561727968493" lon="35.50590616850345">
        <ele>-175</ele>
        <time>2026-06-10T15:28:28.000Z</time>
      </trkpt>
      <trkpt lat="32.45665578074729" lon="35.50547831890311">
        <ele>-176</ele>
        <time>2026-06-10T15:28:29.000Z</time>
      </trkpt>
      <trkpt lat="32.45675803996827" lon="35.50547198590946">
        <ele>-176</ele>
        <time>2026-06-10T15:28:30.000Z</time>
      </trkpt>
      <trkpt lat="32.457645962930755" lon="35.50541629281825">
        <ele>-175</ele>
        <time>2026-06-10T15:28:31.000Z</time>
      </trkpt>
      <trkpt lat="32.45843777340139" lon="35.50545075175429">
        <ele>-175</ele>
        <time>2026-06-10T15:28:32.000Z</time>
      </trkpt>
      <trkpt lat="32.45980029835851" lon="35.5054645353287">
        <ele>-173</ele>
        <time>2026-06-10T15:28:33.000Z</time>
      </trkpt>
      <trkpt lat="32.46120808559376" lon="35.505574990188514">
        <ele>-173</ele>
        <time>2026-06-10T15:28:34.000Z</time>
      </trkpt>
      <trkpt lat="32.46140738862918" lon="35.505685258783814">
        <ele>-172</ele>
        <time>2026-06-10T15:28:35.000Z</time>
      </trkpt>
      <trkpt lat="32.46180338699676" lon="35.50569904235823">
        <ele>-172</ele>
        <time>2026-06-10T15:28:36.000Z</time>
      </trkpt>
      <trkpt lat="32.462088557975484" lon="35.50554723677517">
        <ele>-172</ele>
        <time>2026-06-10T15:28:37.000Z</time>
      </trkpt>
      <trkpt lat="32.463826651702426" lon="35.50612574014839">
        <ele>-169</ele>
        <time>2026-06-10T15:28:38.000Z</time>
      </trkpt>
      <trkpt lat="32.463826651702426" lon="35.50612574014839">
        <ele>-169</ele>
        <time>2026-06-10T15:28:39.000Z</time>
      </trkpt>
      <trkpt lat="32.46497062887931" lon="35.50650649904847">
        <ele>-166</ele>
        <time>2026-06-10T15:28:40.000Z</time>
      </trkpt>
      <trkpt lat="32.46522692885757" lon="35.50649960726126">
        <ele>-166</ele>
        <time>2026-06-10T15:28:41.000Z</time>
      </trkpt>
      <trkpt lat="32.465401644976474" lon="35.50628577559335">
        <ele>-166</ele>
        <time>2026-06-10T15:28:42.000Z</time>
      </trkpt>
      <trkpt lat="32.46566353289031" lon="35.50614067553298">
        <ele>-163</ele>
        <time>2026-06-10T15:28:43.000Z</time>
      </trkpt>
      <trkpt lat="32.465750890949764" lon="35.50610621659695">
        <ele>-163</ele>
        <time>2026-06-10T15:28:44.000Z</time>
      </trkpt>
      <trkpt lat="32.46574101893025" lon="35.50752313079364">
        <ele>-168</ele>
        <time>2026-06-10T15:28:45.000Z</time>
      </trkpt>
      <trkpt lat="32.46609585283911" lon="35.50789826753508">
        <ele>-168</ele>
        <time>2026-06-10T15:28:46.000Z</time>
      </trkpt>
      <trkpt lat="32.46630689053924" lon="35.50828476641219">
        <ele>-167</ele>
        <time>2026-06-10T15:28:47.000Z</time>
      </trkpt>
      <trkpt lat="32.4663983464181" lon="35.508664187237564">
        <ele>-167</ele>
        <time>2026-06-10T15:28:48.000Z</time>
      </trkpt>
      <trkpt lat="32.46649855672938" lon="35.509080488437725">
        <ele>-170</ele>
        <time>2026-06-10T15:28:49.000Z</time>
      </trkpt>
      <trkpt lat="32.466536927220304" lon="35.50975104070643">
        <ele>-175</ele>
        <time>2026-06-10T15:28:50.000Z</time>
      </trkpt>
      <trkpt lat="32.46631639002971" lon="35.51019435026186">
        <ele>-175</ele>
        <time>2026-06-10T15:28:51.000Z</time>
      </trkpt>
      <trkpt lat="32.465560342346734" lon="35.51074755588355">
        <ele>-180</ele>
        <time>2026-06-10T15:28:52.000Z</time>
      </trkpt>
      <trkpt lat="32.46541188952502" lon="35.51100739488767">
        <ele>-179</ele>
        <time>2026-06-10T15:28:53.000Z</time>
      </trkpt>
      <trkpt lat="32.46542977091885" lon="35.511074636379064">
        <ele>-179</ele>
        <time>2026-06-10T15:28:54.000Z</time>
      </trkpt>
      <trkpt lat="32.46549142447467" lon="35.511205207806945">
        <ele>-180</ele>
        <time>2026-06-10T15:28:55.000Z</time>
      </trkpt>
      <trkpt lat="32.46590232400378" lon="35.51086024591759">
        <ele>-180</ele>
        <time>2026-06-10T15:28:56.000Z</time>
      </trkpt>
      <trkpt lat="32.46661543717381" lon="35.51024963737645">
        <ele>-174</ele>
        <time>2026-06-10T15:28:57.000Z</time>
      </trkpt>
      <trkpt lat="32.46661543717381" lon="35.51024963737645">
        <ele>-174</ele>
        <time>2026-06-10T15:28:58.000Z</time>
      </trkpt>
      <trkpt lat="32.46836697612033" lon="35.50874986891635">
        <ele>-168</ele>
        <time>2026-06-10T15:28:59.000Z</time>
      </trkpt>
      <trkpt lat="32.46892278944529" lon="35.508265953695755">
        <ele>-164</ele>
        <time>2026-06-10T15:29:00.000Z</time>
      </trkpt>
      <trkpt lat="32.47052615442558" lon="35.506778072717296">
        <ele>-159</ele>
        <time>2026-06-10T15:29:01.000Z</time>
      </trkpt>
      <trkpt lat="32.471518385518756" lon="35.5054958277679">
        <ele>-154</ele>
        <time>2026-06-10T15:29:02.000Z</time>
      </trkpt>
      <trkpt lat="32.472374270983956" lon="35.50438978905357">
        <ele>-144</ele>
        <time>2026-06-10T15:29:03.000Z</time>
      </trkpt>
      <trkpt lat="32.47283639325581" lon="35.503879424271275">
        <ele>-144</ele>
        <time>2026-06-10T15:29:04.000Z</time>
      </trkpt>
      <trkpt lat="32.472704890505334" lon="35.50377045952761">
        <ele>-144</ele>
        <time>2026-06-10T15:29:05.000Z</time>
      </trkpt>
      <trkpt lat="32.47262423796857" lon="35.50373655938513">
        <ele>-135</ele>
        <time>2026-06-10T15:29:06.000Z</time>
      </trkpt>
      <trkpt lat="32.472615483536174" lon="35.50372389339783">
        <ele>-135</ele>
        <time>2026-06-10T15:29:07.000Z</time>
      </trkpt>
      <trkpt lat="32.47258803608008" lon="35.50370413682281">
        <ele>-135</ele>
        <time>2026-06-10T15:29:08.000Z</time>
      </trkpt>
      <trkpt lat="32.47258803608008" lon="35.50370413682281">
        <ele>-135</ele>
        <time>2026-06-10T15:29:09.000Z</time>
      </trkpt>
      <trkpt lat="32.472615483536174" lon="35.50372389339783">
        <ele>-135</ele>
        <time>2026-06-10T15:29:10.000Z</time>
      </trkpt>
      <trkpt lat="32.47262423796857" lon="35.50373655938513">
        <ele>-135</ele>
        <time>2026-06-10T15:29:11.000Z</time>
      </trkpt>
      <trkpt lat="32.472704890505334" lon="35.50377045952761">
        <ele>-144</ele>
        <time>2026-06-10T15:29:12.000Z</time>
      </trkpt>
      <trkpt lat="32.47283639325581" lon="35.503879424271275">
        <ele>-144</ele>
        <time>2026-06-10T15:29:13.000Z</time>
      </trkpt>
      <trkpt lat="32.47518599539151" lon="35.50140754912617">
        <ele>-135</ele>
        <time>2026-06-10T15:29:14.000Z</time>
      </trkpt>
      <trkpt lat="32.47518599539151" lon="35.50140754912617">
        <ele>-135</ele>
        <time>2026-06-10T15:29:15.000Z</time>
      </trkpt>
      <trkpt lat="32.47547073234925" lon="35.50110799449178">
        <ele>-126</ele>
        <time>2026-06-10T15:29:16.000Z</time>
      </trkpt>
      <trkpt lat="32.4754800455752" lon="35.50132611024364">
        <ele>-126</ele>
        <time>2026-06-10T15:29:17.000Z</time>
      </trkpt>
      <trkpt lat="32.4754800455752" lon="35.50205459077778">
        <ele>-126</ele>
        <time>2026-06-10T15:29:18.000Z</time>
      </trkpt>
      <trkpt lat="32.47541708816775" lon="35.50276444486002">
        <ele>-130</ele>
        <time>2026-06-10T15:29:19.000Z</time>
      </trkpt>
      <trkpt lat="32.47529117335285" lon="35.50388538473588">
        <ele>-133</ele>
        <time>2026-06-10T15:29:20.000Z</time>
      </trkpt>
      <trkpt lat="32.47503878492949" lon="35.5041841530245">
        <ele>-133</ele>
        <time>2026-06-10T15:29:21.000Z</time>
      </trkpt>
      <trkpt lat="32.47497694510915" lon="35.50454848642383">
        <ele>-133</ele>
        <time>2026-06-10T15:29:22.000Z</time>
      </trkpt>
      <trkpt lat="32.47497303355425" lon="35.504570838166124">
        <ele>-133</ele>
        <time>2026-06-10T15:29:23.000Z</time>
      </trkpt>
      <trkpt lat="32.474935221856875" lon="35.505402509243844">
        <ele>-137</ele>
        <time>2026-06-10T15:29:24.000Z</time>
      </trkpt>
      <trkpt lat="32.47481973785504" lon="35.505764421204425">
        <ele>-144</ele>
        <time>2026-06-10T15:29:25.000Z</time>
      </trkpt>
      <trkpt lat="32.47478527891901" lon="35.50620177029524">
        <ele>-144</ele>
        <time>2026-06-10T15:29:26.000Z</time>
      </trkpt>
      <trkpt lat="32.47478226210744" lon="35.506283129339344">
        <ele>-151</ele>
        <time>2026-06-10T15:29:27.000Z</time>
      </trkpt>
    </trkseg>
  </trk>
</gpx>